<?xml version="1.0" encoding="UTF-8" standalone="no" ?>
<gpx xmlns="http://www.topografix.com/GPX/1/1" xmlns:xsi="http://www.w3.org/2001/XMLSchema-instance" xsi:schemaLocation="http://www.topografix.com/GPX/1/1 http://www.topografix.com/GPX/1/1/gpx.xsd" version="1.1" creator="VisuGPX - https://www.visugpx.com">
  <metadata>
    <name>Plateau de Cavilore à Raquettes</name>
    <desc><![CDATA[Repérage de la rando raquette du club de rando Alit  du 17/02/2013.
Avec Vincent A]]></desc>
  </metadata>
  <trk>
    <name><![CDATA[VIKING_TR0]]></name>
    <trkseg>
      <trkpt lat="43.74216" lon="6.94587">
        <ele>1119</ele>
        <time>2013-02-16T10:29:59Z</time>
      </trkpt>
      <trkpt lat="43.74215" lon="6.94588">
        <ele>1119</ele>
        <time>2013-02-16T10:30:18Z</time>
      </trkpt>
      <trkpt lat="43.74214" lon="6.94592">
        <ele>1119</ele>
        <time>2013-02-16T10:30:28Z</time>
      </trkpt>
      <trkpt lat="43.74212" lon="6.94596">
        <ele>1119</ele>
        <time>2013-02-16T10:30:36Z</time>
      </trkpt>
      <trkpt lat="43.7421" lon="6.94601">
        <ele>1119</ele>
        <time>2013-02-16T10:30:42Z</time>
      </trkpt>
      <trkpt lat="43.7421" lon="6.94605">
        <ele>1119</ele>
        <time>2013-02-16T10:30:46Z</time>
      </trkpt>
      <trkpt lat="43.74208" lon="6.94609">
        <ele>1119</ele>
        <time>2013-02-16T10:30:51Z</time>
      </trkpt>
      <trkpt lat="43.74207" lon="6.94617">
        <ele>1119</ele>
        <time>2013-02-16T10:30:58Z</time>
      </trkpt>
      <trkpt lat="43.74207" lon="6.94624">
        <ele>1119</ele>
        <time>2013-02-16T10:31:04Z</time>
      </trkpt>
      <trkpt lat="43.74209" lon="6.94633">
        <ele>1119</ele>
        <time>2013-02-16T10:31:11Z</time>
      </trkpt>
      <trkpt lat="43.74212" lon="6.94642">
        <ele>1119</ele>
        <time>2013-02-16T10:31:20Z</time>
      </trkpt>
      <trkpt lat="43.74212" lon="6.94644">
        <ele>1119</ele>
        <time>2013-02-16T10:31:36Z</time>
      </trkpt>
      <trkpt lat="43.74212" lon="6.94644">
        <ele>1119</ele>
        <time>2013-02-16T10:31:49Z</time>
      </trkpt>
      <trkpt lat="43.74213" lon="6.94646">
        <ele>1119</ele>
        <time>2013-02-16T10:31:59Z</time>
      </trkpt>
      <trkpt lat="43.74216" lon="6.94652">
        <ele>1119</ele>
        <time>2013-02-16T10:32:04Z</time>
      </trkpt>
      <trkpt lat="43.74217" lon="6.94659">
        <ele>1120</ele>
        <time>2013-02-16T10:32:10Z</time>
      </trkpt>
      <trkpt lat="43.74218" lon="6.9466">
        <ele>1120</ele>
        <time>2013-02-16T10:32:11Z</time>
      </trkpt>
      <trkpt lat="43.74223" lon="6.94671">
        <ele>1120</ele>
        <time>2013-02-16T10:32:20Z</time>
      </trkpt>
      <trkpt lat="43.74228" lon="6.94683">
        <ele>1120</ele>
        <time>2013-02-16T10:32:29Z</time>
      </trkpt>
      <trkpt lat="43.7423" lon="6.94693">
        <ele>1120</ele>
        <time>2013-02-16T10:32:35Z</time>
      </trkpt>
      <trkpt lat="43.74231" lon="6.94693">
        <ele>1120</ele>
        <time>2013-02-16T10:32:38Z</time>
      </trkpt>
      <trkpt lat="43.74234" lon="6.94699">
        <ele>1120</ele>
        <time>2013-02-16T10:32:42Z</time>
      </trkpt>
      <trkpt lat="43.74236" lon="6.94711">
        <ele>1120</ele>
        <time>2013-02-16T10:32:50Z</time>
      </trkpt>
      <trkpt lat="43.74239" lon="6.9472">
        <ele>1120</ele>
        <time>2013-02-16T10:32:57Z</time>
      </trkpt>
      <trkpt lat="43.74242" lon="6.94732">
        <ele>1120</ele>
        <time>2013-02-16T10:33:05Z</time>
      </trkpt>
      <trkpt lat="43.74245" lon="6.94745">
        <ele>1120</ele>
        <time>2013-02-16T10:33:14Z</time>
      </trkpt>
      <trkpt lat="43.74246" lon="6.9475">
        <ele>1120</ele>
        <time>2013-02-16T10:33:17Z</time>
      </trkpt>
      <trkpt lat="43.74248" lon="6.94761">
        <ele>1120</ele>
        <time>2013-02-16T10:33:26Z</time>
      </trkpt>
      <trkpt lat="43.7425" lon="6.9477">
        <ele>1119</ele>
        <time>2013-02-16T10:33:33Z</time>
      </trkpt>
      <trkpt lat="43.74251" lon="6.9478">
        <ele>1119</ele>
        <time>2013-02-16T10:33:41Z</time>
      </trkpt>
      <trkpt lat="43.74254" lon="6.94792">
        <ele>1119</ele>
        <time>2013-02-16T10:33:50Z</time>
      </trkpt>
      <trkpt lat="43.74256" lon="6.94806">
        <ele>1119</ele>
        <time>2013-02-16T10:34:00Z</time>
      </trkpt>
      <trkpt lat="43.74257" lon="6.94812">
        <ele>1119</ele>
        <time>2013-02-16T10:34:04Z</time>
      </trkpt>
      <trkpt lat="43.74257" lon="6.9482">
        <ele>1119</ele>
        <time>2013-02-16T10:34:10Z</time>
      </trkpt>
      <trkpt lat="43.74258" lon="6.94827">
        <ele>1119</ele>
        <time>2013-02-16T10:34:16Z</time>
      </trkpt>
      <trkpt lat="43.74261" lon="6.94835">
        <ele>1119</ele>
        <time>2013-02-16T10:34:23Z</time>
      </trkpt>
      <trkpt lat="43.74263" lon="6.94839">
        <ele>1119</ele>
        <time>2013-02-16T10:34:28Z</time>
      </trkpt>
      <trkpt lat="43.74266" lon="6.94846">
        <ele>1119</ele>
        <time>2013-02-16T10:34:34Z</time>
      </trkpt>
      <trkpt lat="43.74267" lon="6.9485">
        <ele>1119</ele>
        <time>2013-02-16T10:34:36Z</time>
      </trkpt>
      <trkpt lat="43.74268" lon="6.94859">
        <ele>1119</ele>
        <time>2013-02-16T10:34:43Z</time>
      </trkpt>
      <trkpt lat="43.74268" lon="6.94862">
        <ele>1119</ele>
        <time>2013-02-16T10:34:45Z</time>
      </trkpt>
      <trkpt lat="43.7427" lon="6.94871">
        <ele>1119</ele>
        <time>2013-02-16T10:34:52Z</time>
      </trkpt>
      <trkpt lat="43.74271" lon="6.9488">
        <ele>1119</ele>
        <time>2013-02-16T10:34:59Z</time>
      </trkpt>
      <trkpt lat="43.74271" lon="6.94889">
        <ele>1118</ele>
        <time>2013-02-16T10:35:06Z</time>
      </trkpt>
      <trkpt lat="43.74273" lon="6.94897">
        <ele>1118</ele>
        <time>2013-02-16T10:35:13Z</time>
      </trkpt>
      <trkpt lat="43.74274" lon="6.94903">
        <ele>1118</ele>
        <time>2013-02-16T10:35:19Z</time>
      </trkpt>
      <trkpt lat="43.74277" lon="6.94909">
        <ele>1118</ele>
        <time>2013-02-16T10:35:25Z</time>
      </trkpt>
      <trkpt lat="43.74284" lon="6.94914">
        <ele>1118</ele>
        <time>2013-02-16T10:35:33Z</time>
      </trkpt>
      <trkpt lat="43.74291" lon="6.94918">
        <ele>1117</ele>
        <time>2013-02-16T10:35:42Z</time>
      </trkpt>
      <trkpt lat="43.74298" lon="6.94923">
        <ele>1118</ele>
        <time>2013-02-16T10:35:50Z</time>
      </trkpt>
      <trkpt lat="43.74305" lon="6.9493">
        <ele>1118</ele>
        <time>2013-02-16T10:36:00Z</time>
      </trkpt>
      <trkpt lat="43.74311" lon="6.94937">
        <ele>1118</ele>
        <time>2013-02-16T10:36:08Z</time>
      </trkpt>
      <trkpt lat="43.74316" lon="6.94944">
        <ele>1118</ele>
        <time>2013-02-16T10:36:16Z</time>
      </trkpt>
      <trkpt lat="43.74323" lon="6.9495">
        <ele>1118</ele>
        <time>2013-02-16T10:36:24Z</time>
      </trkpt>
      <trkpt lat="43.74329" lon="6.94956">
        <ele>1118</ele>
        <time>2013-02-16T10:36:32Z</time>
      </trkpt>
      <trkpt lat="43.74333" lon="6.94964">
        <ele>1118</ele>
        <time>2013-02-16T10:36:40Z</time>
      </trkpt>
      <trkpt lat="43.74336" lon="6.94974">
        <ele>1119</ele>
        <time>2013-02-16T10:36:48Z</time>
      </trkpt>
      <trkpt lat="43.74337" lon="6.94978">
        <ele>1119</ele>
        <time>2013-02-16T10:36:51Z</time>
      </trkpt>
      <trkpt lat="43.74343" lon="6.94987">
        <ele>1119</ele>
        <time>2013-02-16T10:37:00Z</time>
      </trkpt>
      <trkpt lat="43.74346" lon="6.94991">
        <ele>1119</ele>
        <time>2013-02-16T10:37:06Z</time>
      </trkpt>
      <trkpt lat="43.74348" lon="6.9499">
        <ele>1119</ele>
        <time>2013-02-16T10:37:11Z</time>
      </trkpt>
      <trkpt lat="43.74351" lon="6.94989">
        <ele>1119</ele>
        <time>2013-02-16T10:37:17Z</time>
      </trkpt>
      <trkpt lat="43.74352" lon="6.94989">
        <ele>1118</ele>
        <time>2013-02-16T10:37:27Z</time>
      </trkpt>
      <trkpt lat="43.74353" lon="6.9499">
        <ele>1118</ele>
        <time>2013-02-16T10:37:33Z</time>
      </trkpt>
      <trkpt lat="43.74355" lon="6.94992">
        <ele>1118</ele>
        <time>2013-02-16T10:37:40Z</time>
      </trkpt>
      <trkpt lat="43.74356" lon="6.94993">
        <ele>1118</ele>
        <time>2013-02-16T10:37:47Z</time>
      </trkpt>
      <trkpt lat="43.74356" lon="6.94996">
        <ele>1118</ele>
        <time>2013-02-16T10:37:51Z</time>
      </trkpt>
      <trkpt lat="43.74358" lon="6.95">
        <ele>1119</ele>
        <time>2013-02-16T10:37:56Z</time>
      </trkpt>
      <trkpt lat="43.74359" lon="6.95006">
        <ele>1119</ele>
        <time>2013-02-16T10:38:02Z</time>
      </trkpt>
      <trkpt lat="43.74362" lon="6.9501">
        <ele>1119</ele>
        <time>2013-02-16T10:38:07Z</time>
      </trkpt>
      <trkpt lat="43.74365" lon="6.95018">
        <ele>1119</ele>
        <time>2013-02-16T10:38:14Z</time>
      </trkpt>
      <trkpt lat="43.74368" lon="6.95025">
        <ele>1119</ele>
        <time>2013-02-16T10:38:20Z</time>
      </trkpt>
      <trkpt lat="43.74369" lon="6.95032">
        <ele>1119</ele>
        <time>2013-02-16T10:38:27Z</time>
      </trkpt>
      <trkpt lat="43.74371" lon="6.95035">
        <ele>1119</ele>
        <time>2013-02-16T10:38:32Z</time>
      </trkpt>
      <trkpt lat="43.74374" lon="6.95039">
        <ele>1119</ele>
        <time>2013-02-16T10:38:38Z</time>
      </trkpt>
      <trkpt lat="43.74378" lon="6.95045">
        <ele>1119</ele>
        <time>2013-02-16T10:38:45Z</time>
      </trkpt>
      <trkpt lat="43.7438" lon="6.95054">
        <ele>1119</ele>
        <time>2013-02-16T10:38:53Z</time>
      </trkpt>
      <trkpt lat="43.74382" lon="6.95064">
        <ele>1119</ele>
        <time>2013-02-16T10:39:00Z</time>
      </trkpt>
      <trkpt lat="43.74383" lon="6.95071">
        <ele>1119</ele>
        <time>2013-02-16T10:39:06Z</time>
      </trkpt>
      <trkpt lat="43.74383" lon="6.95074">
        <ele>1119</ele>
        <time>2013-02-16T10:39:08Z</time>
      </trkpt>
      <trkpt lat="43.74387" lon="6.95091">
        <ele>1121</ele>
        <time>2013-02-16T10:39:16Z</time>
      </trkpt>
      <trkpt lat="43.74391" lon="6.95103">
        <ele>1121</ele>
        <time>2013-02-16T10:39:21Z</time>
      </trkpt>
      <trkpt lat="43.74392" lon="6.95105">
        <ele>1121</ele>
        <time>2013-02-16T10:39:23Z</time>
      </trkpt>
      <trkpt lat="43.74393" lon="6.95112">
        <ele>1121</ele>
        <time>2013-02-16T10:39:30Z</time>
      </trkpt>
      <trkpt lat="43.74394" lon="6.95123">
        <ele>1121</ele>
        <time>2013-02-16T10:39:38Z</time>
      </trkpt>
      <trkpt lat="43.74395" lon="6.95132">
        <ele>1121</ele>
        <time>2013-02-16T10:39:45Z</time>
      </trkpt>
      <trkpt lat="43.74395" lon="6.95145">
        <ele>1122</ele>
        <time>2013-02-16T10:39:53Z</time>
      </trkpt>
      <trkpt lat="43.74395" lon="6.95158">
        <ele>1122</ele>
        <time>2013-02-16T10:40:02Z</time>
      </trkpt>
      <trkpt lat="43.74395" lon="6.95172">
        <ele>1124</ele>
        <time>2013-02-16T10:40:12Z</time>
      </trkpt>
      <trkpt lat="43.74396" lon="6.95184">
        <ele>1124</ele>
        <time>2013-02-16T10:40:21Z</time>
      </trkpt>
      <trkpt lat="43.74397" lon="6.95196">
        <ele>1124</ele>
        <time>2013-02-16T10:40:30Z</time>
      </trkpt>
      <trkpt lat="43.74398" lon="6.95207">
        <ele>1124</ele>
        <time>2013-02-16T10:40:38Z</time>
      </trkpt>
      <trkpt lat="43.74399" lon="6.95207">
        <ele>1124</ele>
        <time>2013-02-16T10:40:45Z</time>
      </trkpt>
      <trkpt lat="43.74399" lon="6.9521">
        <ele>1125</ele>
        <time>2013-02-16T10:41:02Z</time>
      </trkpt>
      <trkpt lat="43.74399" lon="6.95219">
        <ele>1125</ele>
        <time>2013-02-16T10:41:08Z</time>
      </trkpt>
      <trkpt lat="43.744" lon="6.95224">
        <ele>1125</ele>
        <time>2013-02-16T10:41:12Z</time>
      </trkpt>
      <trkpt lat="43.744" lon="6.95228">
        <ele>1125</ele>
        <time>2013-02-16T10:41:19Z</time>
      </trkpt>
      <trkpt lat="43.74401" lon="6.95237">
        <ele>1126</ele>
        <time>2013-02-16T10:41:27Z</time>
      </trkpt>
      <trkpt lat="43.74401" lon="6.95249">
        <ele>1126</ele>
        <time>2013-02-16T10:41:35Z</time>
      </trkpt>
      <trkpt lat="43.74404" lon="6.95263">
        <ele>1128</ele>
        <time>2013-02-16T10:41:45Z</time>
      </trkpt>
      <trkpt lat="43.74404" lon="6.95276">
        <ele>1128</ele>
        <time>2013-02-16T10:41:55Z</time>
      </trkpt>
      <trkpt lat="43.74404" lon="6.95287">
        <ele>1128</ele>
        <time>2013-02-16T10:42:03Z</time>
      </trkpt>
      <trkpt lat="43.74405" lon="6.95298">
        <ele>1129</ele>
        <time>2013-02-16T10:42:11Z</time>
      </trkpt>
      <trkpt lat="43.74406" lon="6.95309">
        <ele>1129</ele>
        <time>2013-02-16T10:42:18Z</time>
      </trkpt>
      <trkpt lat="43.74408" lon="6.95317">
        <ele>1129</ele>
        <time>2013-02-16T10:42:24Z</time>
      </trkpt>
      <trkpt lat="43.74407" lon="6.95323">
        <ele>1130</ele>
        <time>2013-02-16T10:42:32Z</time>
      </trkpt>
      <trkpt lat="43.74406" lon="6.95331">
        <ele>1130</ele>
        <time>2013-02-16T10:42:39Z</time>
      </trkpt>
      <trkpt lat="43.74406" lon="6.9533">
        <ele>1130</ele>
        <time>2013-02-16T10:42:47Z</time>
      </trkpt>
      <trkpt lat="43.74407" lon="6.95331">
        <ele>1130</ele>
        <time>2013-02-16T10:42:59Z</time>
      </trkpt>
      <trkpt lat="43.74407" lon="6.95331">
        <ele>1130</ele>
        <time>2013-02-16T10:43:18Z</time>
      </trkpt>
      <trkpt lat="43.74407" lon="6.95332">
        <ele>1130</ele>
        <time>2013-02-16T10:43:23Z</time>
      </trkpt>
      <trkpt lat="43.74407" lon="6.95332">
        <ele>1130</ele>
        <time>2013-02-16T10:43:40Z</time>
      </trkpt>
      <trkpt lat="43.74407" lon="6.95332">
        <ele>1130</ele>
        <time>2013-02-16T10:43:47Z</time>
      </trkpt>
      <trkpt lat="43.74408" lon="6.95331">
        <ele>1130</ele>
        <time>2013-02-16T10:44:02Z</time>
      </trkpt>
      <trkpt lat="43.74408" lon="6.95331">
        <ele>1130</ele>
        <time>2013-02-16T10:44:15Z</time>
      </trkpt>
      <trkpt lat="43.74408" lon="6.95331">
        <ele>1130</ele>
        <time>2013-02-16T10:44:44Z</time>
      </trkpt>
      <trkpt lat="43.74407" lon="6.95332">
        <ele>1130</ele>
        <time>2013-02-16T10:44:57Z</time>
      </trkpt>
      <trkpt lat="43.74406" lon="6.95333">
        <ele>1130</ele>
        <time>2013-02-16T10:44:58Z</time>
      </trkpt>
      <trkpt lat="43.74398" lon="6.95337">
        <ele>1132</ele>
        <time>2013-02-16T10:45:05Z</time>
      </trkpt>
      <trkpt lat="43.74396" lon="6.9534">
        <ele>1132</ele>
        <time>2013-02-16T10:45:07Z</time>
      </trkpt>
      <trkpt lat="43.74387" lon="6.95347">
        <ele>1132</ele>
        <time>2013-02-16T10:45:17Z</time>
      </trkpt>
      <trkpt lat="43.74379" lon="6.95352">
        <ele>1132</ele>
        <time>2013-02-16T10:45:25Z</time>
      </trkpt>
      <trkpt lat="43.74371" lon="6.95357">
        <ele>1132</ele>
        <time>2013-02-16T10:45:34Z</time>
      </trkpt>
      <trkpt lat="43.74366" lon="6.95361">
        <ele>1132</ele>
        <time>2013-02-16T10:45:41Z</time>
      </trkpt>
      <trkpt lat="43.74362" lon="6.95366">
        <ele>1132</ele>
        <time>2013-02-16T10:45:47Z</time>
      </trkpt>
      <trkpt lat="43.74359" lon="6.9537">
        <ele>1132</ele>
        <time>2013-02-16T10:45:53Z</time>
      </trkpt>
      <trkpt lat="43.74357" lon="6.95372">
        <ele>1132</ele>
        <time>2013-02-16T10:45:57Z</time>
      </trkpt>
      <trkpt lat="43.74357" lon="6.95374">
        <ele>1132</ele>
        <time>2013-02-16T10:46:05Z</time>
      </trkpt>
      <trkpt lat="43.7436" lon="6.95379">
        <ele>1133</ele>
        <time>2013-02-16T10:46:11Z</time>
      </trkpt>
      <trkpt lat="43.74362" lon="6.95389">
        <ele>1133</ele>
        <time>2013-02-16T10:46:18Z</time>
      </trkpt>
      <trkpt lat="43.74361" lon="6.95397">
        <ele>1133</ele>
        <time>2013-02-16T10:46:25Z</time>
      </trkpt>
      <trkpt lat="43.7436" lon="6.95403">
        <ele>1133</ele>
        <time>2013-02-16T10:46:32Z</time>
      </trkpt>
      <trkpt lat="43.7436" lon="6.95402">
        <ele>1133</ele>
        <time>2013-02-16T10:46:41Z</time>
      </trkpt>
      <trkpt lat="43.74361" lon="6.95402">
        <ele>1133</ele>
        <time>2013-02-16T10:46:47Z</time>
      </trkpt>
      <trkpt lat="43.74361" lon="6.95401">
        <ele>1133</ele>
        <time>2013-02-16T10:46:59Z</time>
      </trkpt>
      <trkpt lat="43.74361" lon="6.95405">
        <ele>1133</ele>
        <time>2013-02-16T10:47:05Z</time>
      </trkpt>
      <trkpt lat="43.74361" lon="6.95415">
        <ele>1134</ele>
        <time>2013-02-16T10:47:12Z</time>
      </trkpt>
      <trkpt lat="43.74361" lon="6.95419">
        <ele>1138</ele>
        <time>2013-02-16T10:47:15Z</time>
      </trkpt>
      <trkpt lat="43.74358" lon="6.95428">
        <ele>1138</ele>
        <time>2013-02-16T10:47:23Z</time>
      </trkpt>
      <trkpt lat="43.74356" lon="6.95433">
        <ele>1138</ele>
        <time>2013-02-16T10:47:29Z</time>
      </trkpt>
      <trkpt lat="43.74356" lon="6.95441">
        <ele>1139</ele>
        <time>2013-02-16T10:47:35Z</time>
      </trkpt>
      <trkpt lat="43.74356" lon="6.95452">
        <ele>1140</ele>
        <time>2013-02-16T10:47:44Z</time>
      </trkpt>
      <trkpt lat="43.74353" lon="6.9546">
        <ele>1140</ele>
        <time>2013-02-16T10:47:51Z</time>
      </trkpt>
      <trkpt lat="43.7435" lon="6.95467">
        <ele>1140</ele>
        <time>2013-02-16T10:47:58Z</time>
      </trkpt>
      <trkpt lat="43.74352" lon="6.95472">
        <ele>1141</ele>
        <time>2013-02-16T10:48:04Z</time>
      </trkpt>
      <trkpt lat="43.74348" lon="6.95477">
        <ele>1141</ele>
        <time>2013-02-16T10:48:10Z</time>
      </trkpt>
      <trkpt lat="43.7435" lon="6.95482">
        <ele>1141</ele>
        <time>2013-02-16T10:48:15Z</time>
      </trkpt>
      <trkpt lat="43.74347" lon="6.95487">
        <ele>1141</ele>
        <time>2013-02-16T10:48:21Z</time>
      </trkpt>
      <trkpt lat="43.74344" lon="6.95492">
        <ele>1141</ele>
        <time>2013-02-16T10:48:27Z</time>
      </trkpt>
      <trkpt lat="43.7434" lon="6.95495">
        <ele>1142</ele>
        <time>2013-02-16T10:48:33Z</time>
      </trkpt>
      <trkpt lat="43.74335" lon="6.95494">
        <ele>1142</ele>
        <time>2013-02-16T10:48:39Z</time>
      </trkpt>
      <trkpt lat="43.7433" lon="6.95496">
        <ele>1141</ele>
        <time>2013-02-16T10:48:45Z</time>
      </trkpt>
      <trkpt lat="43.74326" lon="6.95502">
        <ele>1143</ele>
        <time>2013-02-16T10:48:52Z</time>
      </trkpt>
      <trkpt lat="43.74322" lon="6.95506">
        <ele>1143</ele>
        <time>2013-02-16T10:48:58Z</time>
      </trkpt>
      <trkpt lat="43.74321" lon="6.9551">
        <ele>1143</ele>
        <time>2013-02-16T10:49:03Z</time>
      </trkpt>
      <trkpt lat="43.74318" lon="6.95517">
        <ele>1143</ele>
        <time>2013-02-16T10:49:11Z</time>
      </trkpt>
      <trkpt lat="43.74315" lon="6.95524">
        <ele>1144</ele>
        <time>2013-02-16T10:49:18Z</time>
      </trkpt>
      <trkpt lat="43.74313" lon="6.95525">
        <ele>1144</ele>
        <time>2013-02-16T10:49:23Z</time>
      </trkpt>
      <trkpt lat="43.7431" lon="6.95531">
        <ele>1144</ele>
        <time>2013-02-16T10:49:30Z</time>
      </trkpt>
      <trkpt lat="43.74309" lon="6.95534">
        <ele>1144</ele>
        <time>2013-02-16T10:49:35Z</time>
      </trkpt>
      <trkpt lat="43.74309" lon="6.95535">
        <ele>1144</ele>
        <time>2013-02-16T10:49:45Z</time>
      </trkpt>
      <trkpt lat="43.74308" lon="6.95535">
        <ele>1144</ele>
        <time>2013-02-16T10:49:49Z</time>
      </trkpt>
      <trkpt lat="43.74309" lon="6.9554">
        <ele>1144</ele>
        <time>2013-02-16T10:49:54Z</time>
      </trkpt>
      <trkpt lat="43.74307" lon="6.95546">
        <ele>1145</ele>
        <time>2013-02-16T10:50:00Z</time>
      </trkpt>
      <trkpt lat="43.74306" lon="6.95555">
        <ele>1145</ele>
        <time>2013-02-16T10:50:07Z</time>
      </trkpt>
      <trkpt lat="43.74302" lon="6.95562">
        <ele>1145</ele>
        <time>2013-02-16T10:50:14Z</time>
      </trkpt>
      <trkpt lat="43.743" lon="6.95562">
        <ele>1145</ele>
        <time>2013-02-16T10:50:16Z</time>
      </trkpt>
      <trkpt lat="43.74294" lon="6.95567">
        <ele>1145</ele>
        <time>2013-02-16T10:50:23Z</time>
      </trkpt>
      <trkpt lat="43.74291" lon="6.95574">
        <ele>1145</ele>
        <time>2013-02-16T10:50:30Z</time>
      </trkpt>
      <trkpt lat="43.74288" lon="6.95582">
        <ele>1145</ele>
        <time>2013-02-16T10:50:36Z</time>
      </trkpt>
      <trkpt lat="43.74283" lon="6.95586">
        <ele>1149</ele>
        <time>2013-02-16T10:50:42Z</time>
      </trkpt>
      <trkpt lat="43.7428" lon="6.95592">
        <ele>1149</ele>
        <time>2013-02-16T10:50:49Z</time>
      </trkpt>
      <trkpt lat="43.7428" lon="6.95593">
        <ele>1149</ele>
        <time>2013-02-16T10:50:57Z</time>
      </trkpt>
      <trkpt lat="43.7428" lon="6.95599">
        <ele>1149</ele>
        <time>2013-02-16T10:51:03Z</time>
      </trkpt>
      <trkpt lat="43.74282" lon="6.95607">
        <ele>1150</ele>
        <time>2013-02-16T10:51:10Z</time>
      </trkpt>
      <trkpt lat="43.7428" lon="6.95615">
        <ele>1150</ele>
        <time>2013-02-16T10:51:17Z</time>
      </trkpt>
      <trkpt lat="43.74275" lon="6.95617">
        <ele>1150</ele>
        <time>2013-02-16T10:51:22Z</time>
      </trkpt>
      <trkpt lat="43.74273" lon="6.9562">
        <ele>1150</ele>
        <time>2013-02-16T10:51:25Z</time>
      </trkpt>
      <trkpt lat="43.74271" lon="6.95631">
        <ele>1150</ele>
        <time>2013-02-16T10:51:33Z</time>
      </trkpt>
      <trkpt lat="43.74269" lon="6.95639">
        <ele>1150</ele>
        <time>2013-02-16T10:51:40Z</time>
      </trkpt>
      <trkpt lat="43.74269" lon="6.95647">
        <ele>1150</ele>
        <time>2013-02-16T10:51:46Z</time>
      </trkpt>
      <trkpt lat="43.74267" lon="6.95651">
        <ele>1150</ele>
        <time>2013-02-16T10:51:49Z</time>
      </trkpt>
      <trkpt lat="43.74262" lon="6.95655">
        <ele>1150</ele>
        <time>2013-02-16T10:51:54Z</time>
      </trkpt>
      <trkpt lat="43.74256" lon="6.9566">
        <ele>1149</ele>
        <time>2013-02-16T10:52:01Z</time>
      </trkpt>
      <trkpt lat="43.74252" lon="6.95673">
        <ele>1150</ele>
        <time>2013-02-16T10:52:11Z</time>
      </trkpt>
      <trkpt lat="43.74247" lon="6.95686">
        <ele>1147</ele>
        <time>2013-02-16T10:52:20Z</time>
      </trkpt>
      <trkpt lat="43.74245" lon="6.95693">
        <ele>1147</ele>
        <time>2013-02-16T10:52:26Z</time>
      </trkpt>
      <trkpt lat="43.74246" lon="6.95701">
        <ele>1147</ele>
        <time>2013-02-16T10:52:32Z</time>
      </trkpt>
      <trkpt lat="43.74245" lon="6.95708">
        <ele>1147</ele>
        <time>2013-02-16T10:52:37Z</time>
      </trkpt>
      <trkpt lat="43.74243" lon="6.95719">
        <ele>1148</ele>
        <time>2013-02-16T10:52:45Z</time>
      </trkpt>
      <trkpt lat="43.74244" lon="6.95728">
        <ele>1148</ele>
        <time>2013-02-16T10:52:52Z</time>
      </trkpt>
      <trkpt lat="43.74245" lon="6.95741">
        <ele>1150</ele>
        <time>2013-02-16T10:53:01Z</time>
      </trkpt>
      <trkpt lat="43.74246" lon="6.95745">
        <ele>1151</ele>
        <time>2013-02-16T10:53:04Z</time>
      </trkpt>
      <trkpt lat="43.74246" lon="6.95757">
        <ele>1151</ele>
        <time>2013-02-16T10:53:11Z</time>
      </trkpt>
      <trkpt lat="43.74245" lon="6.95769">
        <ele>1149</ele>
        <time>2013-02-16T10:53:19Z</time>
      </trkpt>
      <trkpt lat="43.74245" lon="6.95782">
        <ele>1148</ele>
        <time>2013-02-16T10:53:27Z</time>
      </trkpt>
      <trkpt lat="43.74247" lon="6.95794">
        <ele>1148</ele>
        <time>2013-02-16T10:53:35Z</time>
      </trkpt>
      <trkpt lat="43.74248" lon="6.95806">
        <ele>1148</ele>
        <time>2013-02-16T10:53:43Z</time>
      </trkpt>
      <trkpt lat="43.74249" lon="6.95819">
        <ele>1149</ele>
        <time>2013-02-16T10:53:51Z</time>
      </trkpt>
      <trkpt lat="43.7425" lon="6.95832">
        <ele>1153</ele>
        <time>2013-02-16T10:54:00Z</time>
      </trkpt>
      <trkpt lat="43.74251" lon="6.95837">
        <ele>1153</ele>
        <time>2013-02-16T10:54:05Z</time>
      </trkpt>
      <trkpt lat="43.74251" lon="6.95837">
        <ele>1153</ele>
        <time>2013-02-16T10:54:14Z</time>
      </trkpt>
      <trkpt lat="43.74251" lon="6.95833">
        <ele>1153</ele>
        <time>2013-02-16T10:56:02Z</time>
      </trkpt>
      <trkpt lat="43.74252" lon="6.9583">
        <ele>1153</ele>
        <time>2013-02-16T10:56:14Z</time>
      </trkpt>
      <trkpt lat="43.74253" lon="6.95832">
        <ele>1153</ele>
        <time>2013-02-16T10:56:21Z</time>
      </trkpt>
      <trkpt lat="43.74253" lon="6.95833">
        <ele>1153</ele>
        <time>2013-02-16T10:56:29Z</time>
      </trkpt>
      <trkpt lat="43.74253" lon="6.95838">
        <ele>1154</ele>
        <time>2013-02-16T10:56:36Z</time>
      </trkpt>
      <trkpt lat="43.74253" lon="6.95845">
        <ele>1155</ele>
        <time>2013-02-16T10:56:41Z</time>
      </trkpt>
      <trkpt lat="43.74252" lon="6.95848">
        <ele>1156</ele>
        <time>2013-02-16T10:56:43Z</time>
      </trkpt>
      <trkpt lat="43.74251" lon="6.95863">
        <ele>1157</ele>
        <time>2013-02-16T10:56:51Z</time>
      </trkpt>
      <trkpt lat="43.74249" lon="6.95867">
        <ele>1145</ele>
        <time>2013-02-16T10:56:54Z</time>
      </trkpt>
      <trkpt lat="43.74238" lon="6.95873">
        <ele>1144</ele>
        <time>2013-02-16T10:57:03Z</time>
      </trkpt>
      <trkpt lat="43.74232" lon="6.95877">
        <ele>1144</ele>
        <time>2013-02-16T10:57:09Z</time>
      </trkpt>
      <trkpt lat="43.74231" lon="6.95879">
        <ele>1143</ele>
        <time>2013-02-16T10:57:10Z</time>
      </trkpt>
      <trkpt lat="43.74225" lon="6.95877">
        <ele>1143</ele>
        <time>2013-02-16T10:57:15Z</time>
      </trkpt>
      <trkpt lat="43.7422" lon="6.95883">
        <ele>1142</ele>
        <time>2013-02-16T10:57:21Z</time>
      </trkpt>
      <trkpt lat="43.74219" lon="6.95884">
        <ele>1142</ele>
        <time>2013-02-16T10:57:22Z</time>
      </trkpt>
      <trkpt lat="43.74215" lon="6.95891">
        <ele>1142</ele>
        <time>2013-02-16T10:57:27Z</time>
      </trkpt>
      <trkpt lat="43.74216" lon="6.95899">
        <ele>1142</ele>
        <time>2013-02-16T10:57:32Z</time>
      </trkpt>
      <trkpt lat="43.74216" lon="6.95902">
        <ele>1142</ele>
        <time>2013-02-16T10:57:34Z</time>
      </trkpt>
      <trkpt lat="43.7422" lon="6.95911">
        <ele>1142</ele>
        <time>2013-02-16T10:57:42Z</time>
      </trkpt>
      <trkpt lat="43.74223" lon="6.95915">
        <ele>1143</ele>
        <time>2013-02-16T10:57:46Z</time>
      </trkpt>
      <trkpt lat="43.74224" lon="6.95918">
        <ele>1141</ele>
        <time>2013-02-16T10:57:48Z</time>
      </trkpt>
      <trkpt lat="43.74224" lon="6.95925">
        <ele>1141</ele>
        <time>2013-02-16T10:57:55Z</time>
      </trkpt>
      <trkpt lat="43.74222" lon="6.95928">
        <ele>1140</ele>
        <time>2013-02-16T10:58:01Z</time>
      </trkpt>
      <trkpt lat="43.74222" lon="6.95934">
        <ele>1140</ele>
        <time>2013-02-16T10:58:06Z</time>
      </trkpt>
      <trkpt lat="43.74222" lon="6.95941">
        <ele>1139</ele>
        <time>2013-02-16T10:58:11Z</time>
      </trkpt>
      <trkpt lat="43.74217" lon="6.95946">
        <ele>1139</ele>
        <time>2013-02-16T10:58:17Z</time>
      </trkpt>
      <trkpt lat="43.74214" lon="6.9595">
        <ele>1138</ele>
        <time>2013-02-16T10:58:21Z</time>
      </trkpt>
      <trkpt lat="43.74212" lon="6.95954">
        <ele>1138</ele>
        <time>2013-02-16T10:58:24Z</time>
      </trkpt>
      <trkpt lat="43.74209" lon="6.95955">
        <ele>1137</ele>
        <time>2013-02-16T10:58:27Z</time>
      </trkpt>
      <trkpt lat="43.742" lon="6.95968">
        <ele>1136</ele>
        <time>2013-02-16T10:58:37Z</time>
      </trkpt>
      <trkpt lat="43.74196" lon="6.95976">
        <ele>1135</ele>
        <time>2013-02-16T10:58:43Z</time>
      </trkpt>
      <trkpt lat="43.74193" lon="6.95981">
        <ele>1135</ele>
        <time>2013-02-16T10:58:46Z</time>
      </trkpt>
      <trkpt lat="43.74188" lon="6.95987">
        <ele>1134</ele>
        <time>2013-02-16T10:58:52Z</time>
      </trkpt>
      <trkpt lat="43.74186" lon="6.9599">
        <ele>1133</ele>
        <time>2013-02-16T10:58:55Z</time>
      </trkpt>
      <trkpt lat="43.74181" lon="6.95999">
        <ele>1132</ele>
        <time>2013-02-16T10:59:01Z</time>
      </trkpt>
      <trkpt lat="43.74176" lon="6.96009">
        <ele>1132</ele>
        <time>2013-02-16T10:59:08Z</time>
      </trkpt>
      <trkpt lat="43.74171" lon="6.96018">
        <ele>1133</ele>
        <time>2013-02-16T10:59:15Z</time>
      </trkpt>
      <trkpt lat="43.7417" lon="6.96021">
        <ele>1133</ele>
        <time>2013-02-16T10:59:17Z</time>
      </trkpt>
      <trkpt lat="43.74165" lon="6.96031">
        <ele>1125</ele>
        <time>2013-02-16T10:59:25Z</time>
      </trkpt>
      <trkpt lat="43.74164" lon="6.96032">
        <ele>1125</ele>
        <time>2013-02-16T10:59:26Z</time>
      </trkpt>
      <trkpt lat="43.74164" lon="6.96037">
        <ele>1125</ele>
        <time>2013-02-16T10:59:32Z</time>
      </trkpt>
      <trkpt lat="43.74163" lon="6.96044">
        <ele>1125</ele>
        <time>2013-02-16T10:59:39Z</time>
      </trkpt>
      <trkpt lat="43.74162" lon="6.96045">
        <ele>1125</ele>
        <time>2013-02-16T10:59:40Z</time>
      </trkpt>
      <trkpt lat="43.74158" lon="6.96058">
        <ele>1126</ele>
        <time>2013-02-16T10:59:50Z</time>
      </trkpt>
      <trkpt lat="43.74157" lon="6.96063">
        <ele>1126</ele>
        <time>2013-02-16T10:59:56Z</time>
      </trkpt>
      <trkpt lat="43.74152" lon="6.9607">
        <ele>1126</ele>
        <time>2013-02-16T11:00:03Z</time>
      </trkpt>
      <trkpt lat="43.74151" lon="6.96074">
        <ele>1126</ele>
        <time>2013-02-16T11:00:08Z</time>
      </trkpt>
      <trkpt lat="43.74151" lon="6.96078">
        <ele>1127</ele>
        <time>2013-02-16T11:00:15Z</time>
      </trkpt>
      <trkpt lat="43.74152" lon="6.96086">
        <ele>1129</ele>
        <time>2013-02-16T11:00:21Z</time>
      </trkpt>
      <trkpt lat="43.74151" lon="6.96093">
        <ele>1129</ele>
        <time>2013-02-16T11:00:28Z</time>
      </trkpt>
      <trkpt lat="43.74149" lon="6.961">
        <ele>1128</ele>
        <time>2013-02-16T11:00:34Z</time>
      </trkpt>
      <trkpt lat="43.74146" lon="6.96098">
        <ele>1128</ele>
        <time>2013-02-16T11:00:38Z</time>
      </trkpt>
      <trkpt lat="43.74144" lon="6.96094">
        <ele>1128</ele>
        <time>2013-02-16T11:00:43Z</time>
      </trkpt>
      <trkpt lat="43.74142" lon="6.96095">
        <ele>1128</ele>
        <time>2013-02-16T11:00:46Z</time>
      </trkpt>
      <trkpt lat="43.74136" lon="6.96096">
        <ele>1127</ele>
        <time>2013-02-16T11:00:52Z</time>
      </trkpt>
      <trkpt lat="43.74132" lon="6.96107">
        <ele>1127</ele>
        <time>2013-02-16T11:01:00Z</time>
      </trkpt>
      <trkpt lat="43.74131" lon="6.96113">
        <ele>1127</ele>
        <time>2013-02-16T11:01:04Z</time>
      </trkpt>
      <trkpt lat="43.74124" lon="6.96119">
        <ele>1127</ele>
        <time>2013-02-16T11:01:11Z</time>
      </trkpt>
      <trkpt lat="43.74116" lon="6.96131">
        <ele>1127</ele>
        <time>2013-02-16T11:01:21Z</time>
      </trkpt>
      <trkpt lat="43.74111" lon="6.96144">
        <ele>1126</ele>
        <time>2013-02-16T11:01:30Z</time>
      </trkpt>
      <trkpt lat="43.74106" lon="6.96153">
        <ele>1126</ele>
        <time>2013-02-16T11:01:37Z</time>
      </trkpt>
      <trkpt lat="43.74099" lon="6.96161">
        <ele>1125</ele>
        <time>2013-02-16T11:01:45Z</time>
      </trkpt>
      <trkpt lat="43.74093" lon="6.96166">
        <ele>1124</ele>
        <time>2013-02-16T11:01:51Z</time>
      </trkpt>
      <trkpt lat="43.7409" lon="6.96171">
        <ele>1126</ele>
        <time>2013-02-16T11:01:55Z</time>
      </trkpt>
      <trkpt lat="43.74084" lon="6.9618">
        <ele>1127</ele>
        <time>2013-02-16T11:02:03Z</time>
      </trkpt>
      <trkpt lat="43.74078" lon="6.96187">
        <ele>1121</ele>
        <time>2013-02-16T11:02:10Z</time>
      </trkpt>
      <trkpt lat="43.74071" lon="6.96191">
        <ele>1120</ele>
        <time>2013-02-16T11:02:17Z</time>
      </trkpt>
      <trkpt lat="43.7407" lon="6.96191">
        <ele>1120</ele>
        <time>2013-02-16T11:02:18Z</time>
      </trkpt>
      <trkpt lat="43.74062" lon="6.96198">
        <ele>1120</ele>
        <time>2013-02-16T11:02:26Z</time>
      </trkpt>
      <trkpt lat="43.74057" lon="6.96206">
        <ele>1120</ele>
        <time>2013-02-16T11:02:33Z</time>
      </trkpt>
      <trkpt lat="43.74055" lon="6.96209">
        <ele>1120</ele>
        <time>2013-02-16T11:02:35Z</time>
      </trkpt>
      <trkpt lat="43.74051" lon="6.96211">
        <ele>1120</ele>
        <time>2013-02-16T11:02:39Z</time>
      </trkpt>
      <trkpt lat="43.74049" lon="6.96213">
        <ele>1120</ele>
        <time>2013-02-16T11:02:48Z</time>
      </trkpt>
      <trkpt lat="43.74048" lon="6.96216">
        <ele>1120</ele>
        <time>2013-02-16T11:03:03Z</time>
      </trkpt>
      <trkpt lat="43.74043" lon="6.96222">
        <ele>1119</ele>
        <time>2013-02-16T11:03:09Z</time>
      </trkpt>
      <trkpt lat="43.74038" lon="6.96225">
        <ele>1119</ele>
        <time>2013-02-16T11:03:14Z</time>
      </trkpt>
      <trkpt lat="43.74034" lon="6.96229">
        <ele>1119</ele>
        <time>2013-02-16T11:03:19Z</time>
      </trkpt>
      <trkpt lat="43.74029" lon="6.96233">
        <ele>1118</ele>
        <time>2013-02-16T11:03:25Z</time>
      </trkpt>
      <trkpt lat="43.74021" lon="6.96239">
        <ele>1118</ele>
        <time>2013-02-16T11:03:33Z</time>
      </trkpt>
      <trkpt lat="43.74013" lon="6.96241">
        <ele>1117</ele>
        <time>2013-02-16T11:03:41Z</time>
      </trkpt>
      <trkpt lat="43.74007" lon="6.96245">
        <ele>1116</ele>
        <time>2013-02-16T11:03:47Z</time>
      </trkpt>
      <trkpt lat="43.74005" lon="6.96249">
        <ele>1116</ele>
        <time>2013-02-16T11:03:50Z</time>
      </trkpt>
      <trkpt lat="43.74001" lon="6.96257">
        <ele>1118</ele>
        <time>2013-02-16T11:03:57Z</time>
      </trkpt>
      <trkpt lat="43.73998" lon="6.96261">
        <ele>1115</ele>
        <time>2013-02-16T11:04:01Z</time>
      </trkpt>
      <trkpt lat="43.73994" lon="6.96266">
        <ele>1115</ele>
        <time>2013-02-16T11:04:06Z</time>
      </trkpt>
      <trkpt lat="43.73989" lon="6.96272">
        <ele>1115</ele>
        <time>2013-02-16T11:04:14Z</time>
      </trkpt>
      <trkpt lat="43.73984" lon="6.96277">
        <ele>1115</ele>
        <time>2013-02-16T11:04:21Z</time>
      </trkpt>
      <trkpt lat="43.73978" lon="6.96283">
        <ele>1115</ele>
        <time>2013-02-16T11:04:28Z</time>
      </trkpt>
      <trkpt lat="43.73973" lon="6.96286">
        <ele>1115</ele>
        <time>2013-02-16T11:04:34Z</time>
      </trkpt>
      <trkpt lat="43.73968" lon="6.9629">
        <ele>1114</ele>
        <time>2013-02-16T11:04:40Z</time>
      </trkpt>
      <trkpt lat="43.73963" lon="6.96297">
        <ele>1114</ele>
        <time>2013-02-16T11:04:46Z</time>
      </trkpt>
      <trkpt lat="43.73962" lon="6.96299">
        <ele>1115</ele>
        <time>2013-02-16T11:04:48Z</time>
      </trkpt>
      <trkpt lat="43.7396" lon="6.96304">
        <ele>1115</ele>
        <time>2013-02-16T11:04:52Z</time>
      </trkpt>
      <trkpt lat="43.73957" lon="6.9631">
        <ele>1115</ele>
        <time>2013-02-16T11:04:57Z</time>
      </trkpt>
      <trkpt lat="43.73955" lon="6.96313">
        <ele>1115</ele>
        <time>2013-02-16T11:05:00Z</time>
      </trkpt>
      <trkpt lat="43.73952" lon="6.96316">
        <ele>1114</ele>
        <time>2013-02-16T11:05:04Z</time>
      </trkpt>
      <trkpt lat="43.73948" lon="6.96326">
        <ele>1114</ele>
        <time>2013-02-16T11:05:13Z</time>
      </trkpt>
      <trkpt lat="43.73944" lon="6.96334">
        <ele>1120</ele>
        <time>2013-02-16T11:05:20Z</time>
      </trkpt>
      <trkpt lat="43.73942" lon="6.96336">
        <ele>1119</ele>
        <time>2013-02-16T11:05:22Z</time>
      </trkpt>
      <trkpt lat="43.73939" lon="6.96337">
        <ele>1119</ele>
        <time>2013-02-16T11:05:25Z</time>
      </trkpt>
      <trkpt lat="43.73936" lon="6.96337">
        <ele>1118</ele>
        <time>2013-02-16T11:05:30Z</time>
      </trkpt>
      <trkpt lat="43.73929" lon="6.96339">
        <ele>1117</ele>
        <time>2013-02-16T11:05:36Z</time>
      </trkpt>
      <trkpt lat="43.73924" lon="6.96342">
        <ele>1116</ele>
        <time>2013-02-16T11:05:43Z</time>
      </trkpt>
      <trkpt lat="43.73922" lon="6.96347">
        <ele>1117</ele>
        <time>2013-02-16T11:05:50Z</time>
      </trkpt>
      <trkpt lat="43.73919" lon="6.9635">
        <ele>1117</ele>
        <time>2013-02-16T11:06:08Z</time>
      </trkpt>
      <trkpt lat="43.73915" lon="6.9635">
        <ele>1111</ele>
        <time>2013-02-16T11:06:13Z</time>
      </trkpt>
      <trkpt lat="43.73912" lon="6.96351">
        <ele>1111</ele>
        <time>2013-02-16T11:06:18Z</time>
      </trkpt>
      <trkpt lat="43.73909" lon="6.96355">
        <ele>1111</ele>
        <time>2013-02-16T11:06:23Z</time>
      </trkpt>
      <trkpt lat="43.73903" lon="6.96357">
        <ele>1111</ele>
        <time>2013-02-16T11:06:29Z</time>
      </trkpt>
      <trkpt lat="43.73899" lon="6.96358">
        <ele>1111</ele>
        <time>2013-02-16T11:06:36Z</time>
      </trkpt>
      <trkpt lat="43.73899" lon="6.96358">
        <ele>1111</ele>
        <time>2013-02-16T11:07:01Z</time>
      </trkpt>
      <trkpt lat="43.739" lon="6.96359">
        <ele>1111</ele>
        <time>2013-02-16T11:07:54Z</time>
      </trkpt>
      <trkpt lat="43.73899" lon="6.96361">
        <ele>1111</ele>
        <time>2013-02-16T11:08:03Z</time>
      </trkpt>
      <trkpt lat="43.73895" lon="6.96364">
        <ele>1111</ele>
        <time>2013-02-16T11:08:08Z</time>
      </trkpt>
      <trkpt lat="43.7389" lon="6.96367">
        <ele>1111</ele>
        <time>2013-02-16T11:08:14Z</time>
      </trkpt>
      <trkpt lat="43.73885" lon="6.96372">
        <ele>1111</ele>
        <time>2013-02-16T11:08:21Z</time>
      </trkpt>
      <trkpt lat="43.7388" lon="6.96377">
        <ele>1111</ele>
        <time>2013-02-16T11:08:28Z</time>
      </trkpt>
      <trkpt lat="43.73877" lon="6.96379">
        <ele>1111</ele>
        <time>2013-02-16T11:08:34Z</time>
      </trkpt>
      <trkpt lat="43.73875" lon="6.9638">
        <ele>1111</ele>
        <time>2013-02-16T11:08:37Z</time>
      </trkpt>
      <trkpt lat="43.73871" lon="6.96384">
        <ele>1111</ele>
        <time>2013-02-16T11:08:43Z</time>
      </trkpt>
      <trkpt lat="43.73867" lon="6.96389">
        <ele>1111</ele>
        <time>2013-02-16T11:08:50Z</time>
      </trkpt>
      <trkpt lat="43.73865" lon="6.96394">
        <ele>1111</ele>
        <time>2013-02-16T11:08:56Z</time>
      </trkpt>
      <trkpt lat="43.73861" lon="6.96396">
        <ele>1111</ele>
        <time>2013-02-16T11:09:01Z</time>
      </trkpt>
      <trkpt lat="43.73856" lon="6.96399">
        <ele>1110</ele>
        <time>2013-02-16T11:09:08Z</time>
      </trkpt>
      <trkpt lat="43.73851" lon="6.96402">
        <ele>1110</ele>
        <time>2013-02-16T11:09:14Z</time>
      </trkpt>
      <trkpt lat="43.73846" lon="6.96405">
        <ele>1110</ele>
        <time>2013-02-16T11:09:21Z</time>
      </trkpt>
      <trkpt lat="43.73843" lon="6.96406">
        <ele>1110</ele>
        <time>2013-02-16T11:09:27Z</time>
      </trkpt>
      <trkpt lat="43.7384" lon="6.96407">
        <ele>1110</ele>
        <time>2013-02-16T11:09:32Z</time>
      </trkpt>
      <trkpt lat="43.73837" lon="6.96402">
        <ele>1109</ele>
        <time>2013-02-16T11:09:37Z</time>
      </trkpt>
      <trkpt lat="43.73832" lon="6.96403">
        <ele>1106</ele>
        <time>2013-02-16T11:09:43Z</time>
      </trkpt>
      <trkpt lat="43.7383" lon="6.96404">
        <ele>1106</ele>
        <time>2013-02-16T11:09:49Z</time>
      </trkpt>
      <trkpt lat="43.73828" lon="6.96408">
        <ele>1106</ele>
        <time>2013-02-16T11:09:54Z</time>
      </trkpt>
      <trkpt lat="43.73825" lon="6.96413">
        <ele>1107</ele>
        <time>2013-02-16T11:10:00Z</time>
      </trkpt>
      <trkpt lat="43.73821" lon="6.96419">
        <ele>1108</ele>
        <time>2013-02-16T11:10:07Z</time>
      </trkpt>
      <trkpt lat="43.73817" lon="6.96424">
        <ele>1107</ele>
        <time>2013-02-16T11:10:13Z</time>
      </trkpt>
      <trkpt lat="43.73813" lon="6.96427">
        <ele>1107</ele>
        <time>2013-02-16T11:10:20Z</time>
      </trkpt>
      <trkpt lat="43.73809" lon="6.96429">
        <ele>1107</ele>
        <time>2013-02-16T11:10:26Z</time>
      </trkpt>
      <trkpt lat="43.73808" lon="6.96429">
        <ele>1106</ele>
        <time>2013-02-16T11:10:33Z</time>
      </trkpt>
      <trkpt lat="43.73805" lon="6.96434">
        <ele>1106</ele>
        <time>2013-02-16T11:10:38Z</time>
      </trkpt>
      <trkpt lat="43.738" lon="6.96436">
        <ele>1106</ele>
        <time>2013-02-16T11:10:44Z</time>
      </trkpt>
      <trkpt lat="43.73795" lon="6.96438">
        <ele>1105</ele>
        <time>2013-02-16T11:10:50Z</time>
      </trkpt>
      <trkpt lat="43.7379" lon="6.9644">
        <ele>1105</ele>
        <time>2013-02-16T11:10:56Z</time>
      </trkpt>
      <trkpt lat="43.73785" lon="6.96441">
        <ele>1105</ele>
        <time>2013-02-16T11:11:02Z</time>
      </trkpt>
      <trkpt lat="43.73782" lon="6.96444">
        <ele>1105</ele>
        <time>2013-02-16T11:11:07Z</time>
      </trkpt>
      <trkpt lat="43.73779" lon="6.96449">
        <ele>1105</ele>
        <time>2013-02-16T11:11:13Z</time>
      </trkpt>
      <trkpt lat="43.73775" lon="6.96455">
        <ele>1104</ele>
        <time>2013-02-16T11:11:20Z</time>
      </trkpt>
      <trkpt lat="43.73772" lon="6.96459">
        <ele>1104</ele>
        <time>2013-02-16T11:11:26Z</time>
      </trkpt>
      <trkpt lat="43.73771" lon="6.9646">
        <ele>1104</ele>
        <time>2013-02-16T11:11:31Z</time>
      </trkpt>
      <trkpt lat="43.7377" lon="6.96457">
        <ele>1104</ele>
        <time>2013-02-16T11:11:36Z</time>
      </trkpt>
      <trkpt lat="43.73768" lon="6.96454">
        <ele>1104</ele>
        <time>2013-02-16T11:11:43Z</time>
      </trkpt>
      <trkpt lat="43.73768" lon="6.96452">
        <ele>1104</ele>
        <time>2013-02-16T11:11:47Z</time>
      </trkpt>
      <trkpt lat="43.73768" lon="6.96452">
        <ele>1104</ele>
        <time>2013-02-16T11:11:55Z</time>
      </trkpt>
      <trkpt lat="43.73766" lon="6.96448">
        <ele>1104</ele>
        <time>2013-02-16T11:12:00Z</time>
      </trkpt>
      <trkpt lat="43.73765" lon="6.96448">
        <ele>1104</ele>
        <time>2013-02-16T11:12:05Z</time>
      </trkpt>
      <trkpt lat="43.73765" lon="6.96448">
        <ele>1104</ele>
        <time>2013-02-16T11:12:15Z</time>
      </trkpt>
      <trkpt lat="43.73763" lon="6.96445">
        <ele>1104</ele>
        <time>2013-02-16T11:12:29Z</time>
      </trkpt>
      <trkpt lat="43.73758" lon="6.96445">
        <ele>1103</ele>
        <time>2013-02-16T11:12:35Z</time>
      </trkpt>
      <trkpt lat="43.73755" lon="6.96445">
        <ele>1103</ele>
        <time>2013-02-16T11:12:41Z</time>
      </trkpt>
      <trkpt lat="43.73749" lon="6.96445">
        <ele>1097</ele>
        <time>2013-02-16T11:12:48Z</time>
      </trkpt>
      <trkpt lat="43.73747" lon="6.96448">
        <ele>1097</ele>
        <time>2013-02-16T11:12:53Z</time>
      </trkpt>
      <trkpt lat="43.73749" lon="6.96454">
        <ele>1097</ele>
        <time>2013-02-16T11:12:59Z</time>
      </trkpt>
      <trkpt lat="43.73749" lon="6.9646">
        <ele>1097</ele>
        <time>2013-02-16T11:13:05Z</time>
      </trkpt>
      <trkpt lat="43.73748" lon="6.96465">
        <ele>1097</ele>
        <time>2013-02-16T11:13:10Z</time>
      </trkpt>
      <trkpt lat="43.7375" lon="6.96471">
        <ele>1103</ele>
        <time>2013-02-16T11:13:16Z</time>
      </trkpt>
      <trkpt lat="43.7375" lon="6.96475">
        <ele>1103</ele>
        <time>2013-02-16T11:13:22Z</time>
      </trkpt>
      <trkpt lat="43.73751" lon="6.96482">
        <ele>1102</ele>
        <time>2013-02-16T11:13:29Z</time>
      </trkpt>
      <trkpt lat="43.73751" lon="6.96488">
        <ele>1101</ele>
        <time>2013-02-16T11:13:34Z</time>
      </trkpt>
      <trkpt lat="43.73752" lon="6.96497">
        <ele>1100</ele>
        <time>2013-02-16T11:13:41Z</time>
      </trkpt>
      <trkpt lat="43.73754" lon="6.96503">
        <ele>1101</ele>
        <time>2013-02-16T11:13:47Z</time>
      </trkpt>
      <trkpt lat="43.73753" lon="6.9651">
        <ele>1102</ele>
        <time>2013-02-16T11:13:53Z</time>
      </trkpt>
      <trkpt lat="43.73755" lon="6.96512">
        <ele>1102</ele>
        <time>2013-02-16T11:13:57Z</time>
      </trkpt>
      <trkpt lat="43.73757" lon="6.96515">
        <ele>1103</ele>
        <time>2013-02-16T11:14:04Z</time>
      </trkpt>
      <trkpt lat="43.73752" lon="6.96517">
        <ele>1103</ele>
        <time>2013-02-16T11:14:10Z</time>
      </trkpt>
      <trkpt lat="43.73745" lon="6.96519">
        <ele>1098</ele>
        <time>2013-02-16T11:14:17Z</time>
      </trkpt>
      <trkpt lat="43.73739" lon="6.9652">
        <ele>1098</ele>
        <time>2013-02-16T11:14:24Z</time>
      </trkpt>
      <trkpt lat="43.73734" lon="6.96522">
        <ele>1098</ele>
        <time>2013-02-16T11:14:31Z</time>
      </trkpt>
      <trkpt lat="43.73731" lon="6.96525">
        <ele>1098</ele>
        <time>2013-02-16T11:14:37Z</time>
      </trkpt>
      <trkpt lat="43.73728" lon="6.96529">
        <ele>1098</ele>
        <time>2013-02-16T11:14:43Z</time>
      </trkpt>
      <trkpt lat="43.73725" lon="6.96536">
        <ele>1098</ele>
        <time>2013-02-16T11:14:49Z</time>
      </trkpt>
      <trkpt lat="43.73722" lon="6.96542">
        <ele>1098</ele>
        <time>2013-02-16T11:14:55Z</time>
      </trkpt>
      <trkpt lat="43.73717" lon="6.96545">
        <ele>1098</ele>
        <time>2013-02-16T11:15:01Z</time>
      </trkpt>
      <trkpt lat="43.73712" lon="6.96547">
        <ele>1098</ele>
        <time>2013-02-16T11:15:07Z</time>
      </trkpt>
      <trkpt lat="43.73708" lon="6.96552">
        <ele>1098</ele>
        <time>2013-02-16T11:15:14Z</time>
      </trkpt>
      <trkpt lat="43.73702" lon="6.96556">
        <ele>1098</ele>
        <time>2013-02-16T11:15:21Z</time>
      </trkpt>
      <trkpt lat="43.73696" lon="6.96559">
        <ele>1097</ele>
        <time>2013-02-16T11:15:28Z</time>
      </trkpt>
      <trkpt lat="43.73693" lon="6.96561">
        <ele>1097</ele>
        <time>2013-02-16T11:15:35Z</time>
      </trkpt>
      <trkpt lat="43.73694" lon="6.96561">
        <ele>1097</ele>
        <time>2013-02-16T11:15:49Z</time>
      </trkpt>
      <trkpt lat="43.73692" lon="6.96562">
        <ele>1097</ele>
        <time>2013-02-16T11:15:59Z</time>
      </trkpt>
      <trkpt lat="43.73691" lon="6.9656">
        <ele>1097</ele>
        <time>2013-02-16T11:16:05Z</time>
      </trkpt>
      <trkpt lat="43.73691" lon="6.9656">
        <ele>1097</ele>
        <time>2013-02-16T11:16:13Z</time>
      </trkpt>
      <trkpt lat="43.73687" lon="6.96564">
        <ele>1097</ele>
        <time>2013-02-16T11:16:19Z</time>
      </trkpt>
      <trkpt lat="43.73686" lon="6.96566">
        <ele>1097</ele>
        <time>2013-02-16T11:16:23Z</time>
      </trkpt>
      <trkpt lat="43.73683" lon="6.96568">
        <ele>1097</ele>
        <time>2013-02-16T11:16:29Z</time>
      </trkpt>
      <trkpt lat="43.73679" lon="6.96573">
        <ele>1097</ele>
        <time>2013-02-16T11:16:35Z</time>
      </trkpt>
      <trkpt lat="43.73672" lon="6.96578">
        <ele>1096</ele>
        <time>2013-02-16T11:16:41Z</time>
      </trkpt>
      <trkpt lat="43.73667" lon="6.9658">
        <ele>1096</ele>
        <time>2013-02-16T11:16:47Z</time>
      </trkpt>
      <trkpt lat="43.7366" lon="6.96582">
        <ele>1095</ele>
        <time>2013-02-16T11:16:54Z</time>
      </trkpt>
      <trkpt lat="43.73654" lon="6.96585">
        <ele>1095</ele>
        <time>2013-02-16T11:17:01Z</time>
      </trkpt>
      <trkpt lat="43.73648" lon="6.96589">
        <ele>1094</ele>
        <time>2013-02-16T11:17:08Z</time>
      </trkpt>
      <trkpt lat="43.7364" lon="6.96594">
        <ele>1093</ele>
        <time>2013-02-16T11:17:16Z</time>
      </trkpt>
      <trkpt lat="43.73635" lon="6.96599">
        <ele>1093</ele>
        <time>2013-02-16T11:17:22Z</time>
      </trkpt>
      <trkpt lat="43.73632" lon="6.96603">
        <ele>1093</ele>
        <time>2013-02-16T11:17:28Z</time>
      </trkpt>
      <trkpt lat="43.73632" lon="6.96603">
        <ele>1093</ele>
        <time>2013-02-16T11:17:39Z</time>
      </trkpt>
      <trkpt lat="43.73631" lon="6.96604">
        <ele>1093</ele>
        <time>2013-02-16T11:17:53Z</time>
      </trkpt>
      <trkpt lat="43.73631" lon="6.96608">
        <ele>1093</ele>
        <time>2013-02-16T11:17:58Z</time>
      </trkpt>
      <trkpt lat="43.7363" lon="6.96611">
        <ele>1093</ele>
        <time>2013-02-16T11:18:04Z</time>
      </trkpt>
      <trkpt lat="43.73625" lon="6.96617">
        <ele>1092</ele>
        <time>2013-02-16T11:18:11Z</time>
      </trkpt>
      <trkpt lat="43.7362" lon="6.9662">
        <ele>1092</ele>
        <time>2013-02-16T11:18:16Z</time>
      </trkpt>
      <trkpt lat="43.73615" lon="6.96629">
        <ele>1092</ele>
        <time>2013-02-16T11:18:24Z</time>
      </trkpt>
      <trkpt lat="43.73608" lon="6.96636">
        <ele>1092</ele>
        <time>2013-02-16T11:18:32Z</time>
      </trkpt>
      <trkpt lat="43.73607" lon="6.96641">
        <ele>1091</ele>
        <time>2013-02-16T11:18:38Z</time>
      </trkpt>
      <trkpt lat="43.73607" lon="6.96649">
        <ele>1091</ele>
        <time>2013-02-16T11:18:44Z</time>
      </trkpt>
      <trkpt lat="43.73606" lon="6.96653">
        <ele>1091</ele>
        <time>2013-02-16T11:18:47Z</time>
      </trkpt>
      <trkpt lat="43.73603" lon="6.96667">
        <ele>1087</ele>
        <time>2013-02-16T11:18:56Z</time>
      </trkpt>
      <trkpt lat="43.73602" lon="6.96672">
        <ele>1087</ele>
        <time>2013-02-16T11:19:00Z</time>
      </trkpt>
      <trkpt lat="43.73597" lon="6.96681">
        <ele>1086</ele>
        <time>2013-02-16T11:19:10Z</time>
      </trkpt>
      <trkpt lat="43.73594" lon="6.96688">
        <ele>1086</ele>
        <time>2013-02-16T11:19:17Z</time>
      </trkpt>
      <trkpt lat="43.73594" lon="6.9669">
        <ele>1086</ele>
        <time>2013-02-16T11:19:22Z</time>
      </trkpt>
      <trkpt lat="43.73594" lon="6.96689">
        <ele>1086</ele>
        <time>2013-02-16T11:19:31Z</time>
      </trkpt>
      <trkpt lat="43.73594" lon="6.96694">
        <ele>1086</ele>
        <time>2013-02-16T11:19:37Z</time>
      </trkpt>
      <trkpt lat="43.73597" lon="6.96701">
        <ele>1085</ele>
        <time>2013-02-16T11:19:43Z</time>
      </trkpt>
      <trkpt lat="43.73596" lon="6.96705">
        <ele>1085</ele>
        <time>2013-02-16T11:19:46Z</time>
      </trkpt>
      <trkpt lat="43.73601" lon="6.96711">
        <ele>1084</ele>
        <time>2013-02-16T11:19:53Z</time>
      </trkpt>
      <trkpt lat="43.73604" lon="6.96715">
        <ele>1084</ele>
        <time>2013-02-16T11:19:57Z</time>
      </trkpt>
      <trkpt lat="43.73606" lon="6.9672">
        <ele>1084</ele>
        <time>2013-02-16T11:20:01Z</time>
      </trkpt>
      <trkpt lat="43.73607" lon="6.96726">
        <ele>1083</ele>
        <time>2013-02-16T11:20:05Z</time>
      </trkpt>
      <trkpt lat="43.73612" lon="6.96732">
        <ele>1083</ele>
        <time>2013-02-16T11:20:11Z</time>
      </trkpt>
      <trkpt lat="43.73615" lon="6.9674">
        <ele>1083</ele>
        <time>2013-02-16T11:20:17Z</time>
      </trkpt>
      <trkpt lat="43.73619" lon="6.96749">
        <ele>1083</ele>
        <time>2013-02-16T11:20:24Z</time>
      </trkpt>
      <trkpt lat="43.73622" lon="6.96755">
        <ele>1078</ele>
        <time>2013-02-16T11:20:29Z</time>
      </trkpt>
      <trkpt lat="43.73623" lon="6.96757">
        <ele>1078</ele>
        <time>2013-02-16T11:20:31Z</time>
      </trkpt>
      <trkpt lat="43.73623" lon="6.96766">
        <ele>1078</ele>
        <time>2013-02-16T11:20:39Z</time>
      </trkpt>
      <trkpt lat="43.7362" lon="6.96772">
        <ele>1077</ele>
        <time>2013-02-16T11:20:45Z</time>
      </trkpt>
      <trkpt lat="43.73619" lon="6.9678">
        <ele>1077</ele>
        <time>2013-02-16T11:20:52Z</time>
      </trkpt>
      <trkpt lat="43.73619" lon="6.96786">
        <ele>1077</ele>
        <time>2013-02-16T11:20:57Z</time>
      </trkpt>
      <trkpt lat="43.73617" lon="6.96791">
        <ele>1076</ele>
        <time>2013-02-16T11:21:01Z</time>
      </trkpt>
      <trkpt lat="43.73614" lon="6.96794">
        <ele>1076</ele>
        <time>2013-02-16T11:21:04Z</time>
      </trkpt>
      <trkpt lat="43.73612" lon="6.96797">
        <ele>1076</ele>
        <time>2013-02-16T11:21:09Z</time>
      </trkpt>
      <trkpt lat="43.73607" lon="6.96804">
        <ele>1075</ele>
        <time>2013-02-16T11:21:15Z</time>
      </trkpt>
      <trkpt lat="43.73605" lon="6.96808">
        <ele>1075</ele>
        <time>2013-02-16T11:21:19Z</time>
      </trkpt>
      <trkpt lat="43.73601" lon="6.96817">
        <ele>1074</ele>
        <time>2013-02-16T11:21:26Z</time>
      </trkpt>
      <trkpt lat="43.736" lon="6.96817">
        <ele>1073</ele>
        <time>2013-02-16T11:21:27Z</time>
      </trkpt>
      <trkpt lat="43.73592" lon="6.96821">
        <ele>1072</ele>
        <time>2013-02-16T11:21:33Z</time>
      </trkpt>
      <trkpt lat="43.73587" lon="6.96822">
        <ele>1071</ele>
        <time>2013-02-16T11:21:37Z</time>
      </trkpt>
      <trkpt lat="43.73583" lon="6.96828">
        <ele>1069</ele>
        <time>2013-02-16T11:21:43Z</time>
      </trkpt>
      <trkpt lat="43.73581" lon="6.96829">
        <ele>1069</ele>
        <time>2013-02-16T11:21:45Z</time>
      </trkpt>
      <trkpt lat="43.73574" lon="6.96829">
        <ele>1070</ele>
        <time>2013-02-16T11:21:52Z</time>
      </trkpt>
      <trkpt lat="43.73568" lon="6.96833">
        <ele>1067</ele>
        <time>2013-02-16T11:21:59Z</time>
      </trkpt>
      <trkpt lat="43.73564" lon="6.96835">
        <ele>1066</ele>
        <time>2013-02-16T11:22:03Z</time>
      </trkpt>
      <trkpt lat="43.73556" lon="6.96841">
        <ele>1066</ele>
        <time>2013-02-16T11:22:10Z</time>
      </trkpt>
      <trkpt lat="43.73553" lon="6.96843">
        <ele>1066</ele>
        <time>2013-02-16T11:22:14Z</time>
      </trkpt>
      <trkpt lat="43.73549" lon="6.96853">
        <ele>1066</ele>
        <time>2013-02-16T11:22:22Z</time>
      </trkpt>
      <trkpt lat="43.73543" lon="6.96858">
        <ele>1065</ele>
        <time>2013-02-16T11:22:28Z</time>
      </trkpt>
      <trkpt lat="43.73541" lon="6.96861">
        <ele>1065</ele>
        <time>2013-02-16T11:22:31Z</time>
      </trkpt>
      <trkpt lat="43.73535" lon="6.96867">
        <ele>1065</ele>
        <time>2013-02-16T11:22:37Z</time>
      </trkpt>
      <trkpt lat="43.73529" lon="6.96874">
        <ele>1065</ele>
        <time>2013-02-16T11:22:44Z</time>
      </trkpt>
      <trkpt lat="43.73529" lon="6.9688">
        <ele>1065</ele>
        <time>2013-02-16T11:22:48Z</time>
      </trkpt>
      <trkpt lat="43.73529" lon="6.96888">
        <ele>1064</ele>
        <time>2013-02-16T11:22:53Z</time>
      </trkpt>
      <trkpt lat="43.73529" lon="6.96896">
        <ele>1064</ele>
        <time>2013-02-16T11:22:58Z</time>
      </trkpt>
      <trkpt lat="43.73534" lon="6.969">
        <ele>1064</ele>
        <time>2013-02-16T11:23:03Z</time>
      </trkpt>
      <trkpt lat="43.73537" lon="6.96907">
        <ele>1064</ele>
        <time>2013-02-16T11:23:09Z</time>
      </trkpt>
      <trkpt lat="43.73538" lon="6.96909">
        <ele>1064</ele>
        <time>2013-02-16T11:23:10Z</time>
      </trkpt>
      <trkpt lat="43.73542" lon="6.96921">
        <ele>1059</ele>
        <time>2013-02-16T11:23:18Z</time>
      </trkpt>
      <trkpt lat="43.73543" lon="6.96929">
        <ele>1059</ele>
        <time>2013-02-16T11:23:23Z</time>
      </trkpt>
      <trkpt lat="43.7354" lon="6.96944">
        <ele>1059</ele>
        <time>2013-02-16T11:23:33Z</time>
      </trkpt>
      <trkpt lat="43.73537" lon="6.96955">
        <ele>1058</ele>
        <time>2013-02-16T11:23:40Z</time>
      </trkpt>
      <trkpt lat="43.73531" lon="6.96962">
        <ele>1058</ele>
        <time>2013-02-16T11:23:47Z</time>
      </trkpt>
      <trkpt lat="43.73528" lon="6.96964">
        <ele>1058</ele>
        <time>2013-02-16T11:23:50Z</time>
      </trkpt>
      <trkpt lat="43.73527" lon="6.96973">
        <ele>1057</ele>
        <time>2013-02-16T11:23:57Z</time>
      </trkpt>
      <trkpt lat="43.73527" lon="6.96975">
        <ele>1057</ele>
        <time>2013-02-16T11:23:58Z</time>
      </trkpt>
      <trkpt lat="43.73516" lon="6.96986">
        <ele>1056</ele>
        <time>2013-02-16T11:24:08Z</time>
      </trkpt>
      <trkpt lat="43.73507" lon="6.96995">
        <ele>1054</ele>
        <time>2013-02-16T11:24:16Z</time>
      </trkpt>
      <trkpt lat="43.73498" lon="6.97005">
        <ele>1052</ele>
        <time>2013-02-16T11:24:24Z</time>
      </trkpt>
      <trkpt lat="43.73496" lon="6.97008">
        <ele>1051</ele>
        <time>2013-02-16T11:24:26Z</time>
      </trkpt>
      <trkpt lat="43.73488" lon="6.97012">
        <ele>1050</ele>
        <time>2013-02-16T11:24:32Z</time>
      </trkpt>
      <trkpt lat="43.7348" lon="6.97014">
        <ele>1050</ele>
        <time>2013-02-16T11:24:38Z</time>
      </trkpt>
      <trkpt lat="43.73472" lon="6.97021">
        <ele>1049</ele>
        <time>2013-02-16T11:24:44Z</time>
      </trkpt>
      <trkpt lat="43.73465" lon="6.97028">
        <ele>1049</ele>
        <time>2013-02-16T11:24:50Z</time>
      </trkpt>
      <trkpt lat="43.7346" lon="6.97035">
        <ele>1048</ele>
        <time>2013-02-16T11:24:56Z</time>
      </trkpt>
      <trkpt lat="43.7345" lon="6.97043">
        <ele>1048</ele>
        <time>2013-02-16T11:25:05Z</time>
      </trkpt>
      <trkpt lat="43.73444" lon="6.97049">
        <ele>1047</ele>
        <time>2013-02-16T11:25:11Z</time>
      </trkpt>
      <trkpt lat="43.73443" lon="6.9705">
        <ele>1047</ele>
        <time>2013-02-16T11:25:13Z</time>
      </trkpt>
      <trkpt lat="43.73438" lon="6.97056">
        <ele>1047</ele>
        <time>2013-02-16T11:25:18Z</time>
      </trkpt>
      <trkpt lat="43.73432" lon="6.97062">
        <ele>1046</ele>
        <time>2013-02-16T11:25:25Z</time>
      </trkpt>
      <trkpt lat="43.73425" lon="6.9707">
        <ele>1045</ele>
        <time>2013-02-16T11:25:32Z</time>
      </trkpt>
      <trkpt lat="43.73417" lon="6.97078">
        <ele>1043</ele>
        <time>2013-02-16T11:25:39Z</time>
      </trkpt>
      <trkpt lat="43.73414" lon="6.97083">
        <ele>1041</ele>
        <time>2013-02-16T11:25:43Z</time>
      </trkpt>
      <trkpt lat="43.73408" lon="6.97095">
        <ele>1040</ele>
        <time>2013-02-16T11:25:51Z</time>
      </trkpt>
      <trkpt lat="43.73402" lon="6.97102">
        <ele>1039</ele>
        <time>2013-02-16T11:25:58Z</time>
      </trkpt>
      <trkpt lat="43.73399" lon="6.97106">
        <ele>1038</ele>
        <time>2013-02-16T11:26:01Z</time>
      </trkpt>
      <trkpt lat="43.73396" lon="6.9711">
        <ele>1038</ele>
        <time>2013-02-16T11:26:05Z</time>
      </trkpt>
      <trkpt lat="43.73393" lon="6.97115">
        <ele>1038</ele>
        <time>2013-02-16T11:26:09Z</time>
      </trkpt>
      <trkpt lat="43.73387" lon="6.97124">
        <ele>1037</ele>
        <time>2013-02-16T11:26:17Z</time>
      </trkpt>
      <trkpt lat="43.73385" lon="6.97126">
        <ele>1037</ele>
        <time>2013-02-16T11:26:19Z</time>
      </trkpt>
      <trkpt lat="43.73382" lon="6.9713">
        <ele>1037</ele>
        <time>2013-02-16T11:26:24Z</time>
      </trkpt>
      <trkpt lat="43.73377" lon="6.97136">
        <ele>1036</ele>
        <time>2013-02-16T11:26:31Z</time>
      </trkpt>
      <trkpt lat="43.73374" lon="6.97137">
        <ele>1036</ele>
        <time>2013-02-16T11:26:36Z</time>
      </trkpt>
      <trkpt lat="43.73372" lon="6.97143">
        <ele>1036</ele>
        <time>2013-02-16T11:26:40Z</time>
      </trkpt>
      <trkpt lat="43.73369" lon="6.97155">
        <ele>1035</ele>
        <time>2013-02-16T11:26:48Z</time>
      </trkpt>
      <trkpt lat="43.73361" lon="6.97163">
        <ele>1035</ele>
        <time>2013-02-16T11:26:56Z</time>
      </trkpt>
      <trkpt lat="43.73355" lon="6.9717">
        <ele>1031</ele>
        <time>2013-02-16T11:27:02Z</time>
      </trkpt>
      <trkpt lat="43.73346" lon="6.97176">
        <ele>1031</ele>
        <time>2013-02-16T11:27:11Z</time>
      </trkpt>
      <trkpt lat="43.7334" lon="6.9718">
        <ele>1031</ele>
        <time>2013-02-16T11:27:16Z</time>
      </trkpt>
      <trkpt lat="43.73331" lon="6.97177">
        <ele>1031</ele>
        <time>2013-02-16T11:27:24Z</time>
      </trkpt>
      <trkpt lat="43.7333" lon="6.97176">
        <ele>1031</ele>
        <time>2013-02-16T11:27:25Z</time>
      </trkpt>
      <trkpt lat="43.73321" lon="6.97172">
        <ele>1031</ele>
        <time>2013-02-16T11:27:33Z</time>
      </trkpt>
      <trkpt lat="43.73314" lon="6.97167">
        <ele>1031</ele>
        <time>2013-02-16T11:27:40Z</time>
      </trkpt>
      <trkpt lat="43.73306" lon="6.97167">
        <ele>1031</ele>
        <time>2013-02-16T11:27:46Z</time>
      </trkpt>
      <trkpt lat="43.733" lon="6.9717">
        <ele>1031</ele>
        <time>2013-02-16T11:27:51Z</time>
      </trkpt>
      <trkpt lat="43.7329" lon="6.97176">
        <ele>1031</ele>
        <time>2013-02-16T11:27:59Z</time>
      </trkpt>
      <trkpt lat="43.73283" lon="6.97184">
        <ele>1031</ele>
        <time>2013-02-16T11:28:06Z</time>
      </trkpt>
      <trkpt lat="43.73274" lon="6.97187">
        <ele>1031</ele>
        <time>2013-02-16T11:28:13Z</time>
      </trkpt>
      <trkpt lat="43.73264" lon="6.97189">
        <ele>1032</ele>
        <time>2013-02-16T11:28:20Z</time>
      </trkpt>
      <trkpt lat="43.73259" lon="6.97191">
        <ele>1032</ele>
        <time>2013-02-16T11:28:24Z</time>
      </trkpt>
      <trkpt lat="43.73254" lon="6.97201">
        <ele>1031</ele>
        <time>2013-02-16T11:28:32Z</time>
      </trkpt>
      <trkpt lat="43.73254" lon="6.97202">
        <ele>1031</ele>
        <time>2013-02-16T11:28:33Z</time>
      </trkpt>
      <trkpt lat="43.73254" lon="6.9721">
        <ele>1031</ele>
        <time>2013-02-16T11:28:40Z</time>
      </trkpt>
      <trkpt lat="43.73253" lon="6.97214">
        <ele>1031</ele>
        <time>2013-02-16T11:28:45Z</time>
      </trkpt>
      <trkpt lat="43.7325" lon="6.97215">
        <ele>1032</ele>
        <time>2013-02-16T11:28:50Z</time>
      </trkpt>
      <trkpt lat="43.73245" lon="6.97221">
        <ele>1032</ele>
        <time>2013-02-16T11:28:58Z</time>
      </trkpt>
      <trkpt lat="43.73242" lon="6.97227">
        <ele>1032</ele>
        <time>2013-02-16T11:29:05Z</time>
      </trkpt>
      <trkpt lat="43.73239" lon="6.9723">
        <ele>1032</ele>
        <time>2013-02-16T11:29:10Z</time>
      </trkpt>
      <trkpt lat="43.73234" lon="6.97237">
        <ele>1032</ele>
        <time>2013-02-16T11:29:18Z</time>
      </trkpt>
      <trkpt lat="43.73229" lon="6.97241">
        <ele>1032</ele>
        <time>2013-02-16T11:29:24Z</time>
      </trkpt>
      <trkpt lat="43.73226" lon="6.97243">
        <ele>1032</ele>
        <time>2013-02-16T11:29:27Z</time>
      </trkpt>
      <trkpt lat="43.7322" lon="6.97248">
        <ele>1032</ele>
        <time>2013-02-16T11:29:34Z</time>
      </trkpt>
      <trkpt lat="43.73216" lon="6.97252">
        <ele>1031</ele>
        <time>2013-02-16T11:29:39Z</time>
      </trkpt>
      <trkpt lat="43.73212" lon="6.97259">
        <ele>1031</ele>
        <time>2013-02-16T11:29:46Z</time>
      </trkpt>
      <trkpt lat="43.73207" lon="6.97265">
        <ele>1031</ele>
        <time>2013-02-16T11:29:52Z</time>
      </trkpt>
      <trkpt lat="43.73203" lon="6.97273">
        <ele>1031</ele>
        <time>2013-02-16T11:29:59Z</time>
      </trkpt>
      <trkpt lat="43.73202" lon="6.97275">
        <ele>1031</ele>
        <time>2013-02-16T11:30:01Z</time>
      </trkpt>
      <trkpt lat="43.73199" lon="6.97281">
        <ele>1031</ele>
        <time>2013-02-16T11:30:06Z</time>
      </trkpt>
      <trkpt lat="43.73195" lon="6.9729">
        <ele>1031</ele>
        <time>2013-02-16T11:30:13Z</time>
      </trkpt>
      <trkpt lat="43.73192" lon="6.97292">
        <ele>1031</ele>
        <time>2013-02-16T11:30:16Z</time>
      </trkpt>
      <trkpt lat="43.73185" lon="6.97303">
        <ele>1031</ele>
        <time>2013-02-16T11:30:25Z</time>
      </trkpt>
      <trkpt lat="43.73179" lon="6.9731">
        <ele>1031</ele>
        <time>2013-02-16T11:30:32Z</time>
      </trkpt>
      <trkpt lat="43.73173" lon="6.97318">
        <ele>1032</ele>
        <time>2013-02-16T11:30:39Z</time>
      </trkpt>
      <trkpt lat="43.73169" lon="6.97326">
        <ele>1032</ele>
        <time>2013-02-16T11:30:46Z</time>
      </trkpt>
      <trkpt lat="43.7316" lon="6.97334">
        <ele>1031</ele>
        <time>2013-02-16T11:30:55Z</time>
      </trkpt>
      <trkpt lat="43.73155" lon="6.97341">
        <ele>1031</ele>
        <time>2013-02-16T11:31:02Z</time>
      </trkpt>
      <trkpt lat="43.73154" lon="6.97344">
        <ele>1031</ele>
        <time>2013-02-16T11:31:04Z</time>
      </trkpt>
      <trkpt lat="43.73153" lon="6.97344">
        <ele>1031</ele>
        <time>2013-02-16T11:31:12Z</time>
      </trkpt>
      <trkpt lat="43.73153" lon="6.97344">
        <ele>1031</ele>
        <time>2013-02-16T11:31:22Z</time>
      </trkpt>
      <trkpt lat="43.73153" lon="6.97344">
        <ele>1031</ele>
        <time>2013-02-16T11:31:32Z</time>
      </trkpt>
      <trkpt lat="43.73153" lon="6.97344">
        <ele>1031</ele>
        <time>2013-02-16T11:31:44Z</time>
      </trkpt>
      <trkpt lat="43.73153" lon="6.97344">
        <ele>1031</ele>
        <time>2013-02-16T11:31:53Z</time>
      </trkpt>
      <trkpt lat="43.73153" lon="6.97346">
        <ele>1031</ele>
        <time>2013-02-16T11:31:58Z</time>
      </trkpt>
      <trkpt lat="43.73148" lon="6.97354">
        <ele>1030</ele>
        <time>2013-02-16T11:32:05Z</time>
      </trkpt>
      <trkpt lat="43.73142" lon="6.97364">
        <ele>1030</ele>
        <time>2013-02-16T11:32:13Z</time>
      </trkpt>
      <trkpt lat="43.73135" lon="6.97372">
        <ele>1030</ele>
        <time>2013-02-16T11:32:22Z</time>
      </trkpt>
      <trkpt lat="43.73129" lon="6.97379">
        <ele>1030</ele>
        <time>2013-02-16T11:32:30Z</time>
      </trkpt>
      <trkpt lat="43.73123" lon="6.97386">
        <ele>1030</ele>
        <time>2013-02-16T11:32:37Z</time>
      </trkpt>
      <trkpt lat="43.7312" lon="6.97392">
        <ele>1030</ele>
        <time>2013-02-16T11:32:41Z</time>
      </trkpt>
      <trkpt lat="43.73118" lon="6.97405">
        <ele>1030</ele>
        <time>2013-02-16T11:32:50Z</time>
      </trkpt>
      <trkpt lat="43.73116" lon="6.97419">
        <ele>1030</ele>
        <time>2013-02-16T11:32:59Z</time>
      </trkpt>
      <trkpt lat="43.73111" lon="6.97422">
        <ele>1030</ele>
        <time>2013-02-16T11:33:04Z</time>
      </trkpt>
      <trkpt lat="43.73109" lon="6.97421">
        <ele>1030</ele>
        <time>2013-02-16T11:33:06Z</time>
      </trkpt>
      <trkpt lat="43.73102" lon="6.97424">
        <ele>1030</ele>
        <time>2013-02-16T11:33:13Z</time>
      </trkpt>
      <trkpt lat="43.73094" lon="6.97433">
        <ele>1030</ele>
        <time>2013-02-16T11:33:21Z</time>
      </trkpt>
      <trkpt lat="43.73087" lon="6.97444">
        <ele>1030</ele>
        <time>2013-02-16T11:33:29Z</time>
      </trkpt>
      <trkpt lat="43.73081" lon="6.97452">
        <ele>1029</ele>
        <time>2013-02-16T11:33:36Z</time>
      </trkpt>
      <trkpt lat="43.73074" lon="6.97463">
        <ele>1028</ele>
        <time>2013-02-16T11:33:44Z</time>
      </trkpt>
      <trkpt lat="43.73068" lon="6.97472">
        <ele>1028</ele>
        <time>2013-02-16T11:33:51Z</time>
      </trkpt>
      <trkpt lat="43.73062" lon="6.97483">
        <ele>1028</ele>
        <time>2013-02-16T11:33:59Z</time>
      </trkpt>
      <trkpt lat="43.73055" lon="6.97495">
        <ele>1028</ele>
        <time>2013-02-16T11:34:07Z</time>
      </trkpt>
      <trkpt lat="43.73048" lon="6.97507">
        <ele>1027</ele>
        <time>2013-02-16T11:34:16Z</time>
      </trkpt>
      <trkpt lat="43.73043" lon="6.97518">
        <ele>1027</ele>
        <time>2013-02-16T11:34:24Z</time>
      </trkpt>
      <trkpt lat="43.73036" lon="6.97527">
        <ele>1026</ele>
        <time>2013-02-16T11:34:33Z</time>
      </trkpt>
      <trkpt lat="43.73029" lon="6.97535">
        <ele>1026</ele>
        <time>2013-02-16T11:34:42Z</time>
      </trkpt>
      <trkpt lat="43.73025" lon="6.97542">
        <ele>1026</ele>
        <time>2013-02-16T11:34:49Z</time>
      </trkpt>
      <trkpt lat="43.73022" lon="6.97546">
        <ele>1026</ele>
        <time>2013-02-16T11:34:53Z</time>
      </trkpt>
      <trkpt lat="43.73017" lon="6.97556">
        <ele>1025</ele>
        <time>2013-02-16T11:35:02Z</time>
      </trkpt>
      <trkpt lat="43.73013" lon="6.97563">
        <ele>1025</ele>
        <time>2013-02-16T11:35:08Z</time>
      </trkpt>
      <trkpt lat="43.73011" lon="6.97567">
        <ele>1024</ele>
        <time>2013-02-16T11:35:14Z</time>
      </trkpt>
      <trkpt lat="43.73011" lon="6.97568">
        <ele>1024</ele>
        <time>2013-02-16T11:35:20Z</time>
      </trkpt>
      <trkpt lat="43.73009" lon="6.97574">
        <ele>1024</ele>
        <time>2013-02-16T11:35:27Z</time>
      </trkpt>
      <trkpt lat="43.73004" lon="6.97585">
        <ele>1023</ele>
        <time>2013-02-16T11:35:35Z</time>
      </trkpt>
      <trkpt lat="43.73" lon="6.97596">
        <ele>1020</ele>
        <time>2013-02-16T11:35:43Z</time>
      </trkpt>
      <trkpt lat="43.72995" lon="6.97606">
        <ele>1019</ele>
        <time>2013-02-16T11:35:50Z</time>
      </trkpt>
      <trkpt lat="43.72991" lon="6.97617">
        <ele>1018</ele>
        <time>2013-02-16T11:35:58Z</time>
      </trkpt>
      <trkpt lat="43.72987" lon="6.97628">
        <ele>1018</ele>
        <time>2013-02-16T11:36:06Z</time>
      </trkpt>
      <trkpt lat="43.72983" lon="6.97639">
        <ele>1018</ele>
        <time>2013-02-16T11:36:15Z</time>
      </trkpt>
      <trkpt lat="43.72979" lon="6.97649">
        <ele>1018</ele>
        <time>2013-02-16T11:36:23Z</time>
      </trkpt>
      <trkpt lat="43.72976" lon="6.97656">
        <ele>1018</ele>
        <time>2013-02-16T11:36:29Z</time>
      </trkpt>
      <trkpt lat="43.72972" lon="6.97665">
        <ele>1017</ele>
        <time>2013-02-16T11:36:37Z</time>
      </trkpt>
      <trkpt lat="43.72967" lon="6.97675">
        <ele>1013</ele>
        <time>2013-02-16T11:36:45Z</time>
      </trkpt>
      <trkpt lat="43.72964" lon="6.97682">
        <ele>1012</ele>
        <time>2013-02-16T11:36:52Z</time>
      </trkpt>
      <trkpt lat="43.72964" lon="6.9769">
        <ele>1012</ele>
        <time>2013-02-16T11:36:59Z</time>
      </trkpt>
      <trkpt lat="43.72969" lon="6.97698">
        <ele>1012</ele>
        <time>2013-02-16T11:37:06Z</time>
      </trkpt>
      <trkpt lat="43.72975" lon="6.97707">
        <ele>1012</ele>
        <time>2013-02-16T11:37:15Z</time>
      </trkpt>
      <trkpt lat="43.7298" lon="6.9771">
        <ele>1013</ele>
        <time>2013-02-16T11:37:20Z</time>
      </trkpt>
      <trkpt lat="43.72985" lon="6.97715">
        <ele>1014</ele>
        <time>2013-02-16T11:37:27Z</time>
      </trkpt>
      <trkpt lat="43.72986" lon="6.97716">
        <ele>1014</ele>
        <time>2013-02-16T11:37:28Z</time>
      </trkpt>
      <trkpt lat="43.72991" lon="6.97725">
        <ele>1015</ele>
        <time>2013-02-16T11:37:36Z</time>
      </trkpt>
      <trkpt lat="43.72995" lon="6.97733">
        <ele>1017</ele>
        <time>2013-02-16T11:37:43Z</time>
      </trkpt>
      <trkpt lat="43.72999" lon="6.9774">
        <ele>1019</ele>
        <time>2013-02-16T11:37:50Z</time>
      </trkpt>
      <trkpt lat="43.73" lon="6.97743">
        <ele>1025</ele>
        <time>2013-02-16T11:37:52Z</time>
      </trkpt>
      <trkpt lat="43.73006" lon="6.97752">
        <ele>1023</ele>
        <time>2013-02-16T11:38:00Z</time>
      </trkpt>
      <trkpt lat="43.73013" lon="6.97759">
        <ele>1023</ele>
        <time>2013-02-16T11:38:08Z</time>
      </trkpt>
      <trkpt lat="43.73022" lon="6.97761">
        <ele>1023</ele>
        <time>2013-02-16T11:38:17Z</time>
      </trkpt>
      <trkpt lat="43.73026" lon="6.97763">
        <ele>1023</ele>
        <time>2013-02-16T11:38:21Z</time>
      </trkpt>
      <trkpt lat="43.73029" lon="6.97775">
        <ele>1022</ele>
        <time>2013-02-16T11:38:29Z</time>
      </trkpt>
      <trkpt lat="43.7303" lon="6.97778">
        <ele>1022</ele>
        <time>2013-02-16T11:38:31Z</time>
      </trkpt>
      <trkpt lat="43.73032" lon="6.9778">
        <ele>1022</ele>
        <time>2013-02-16T11:38:34Z</time>
      </trkpt>
      <trkpt lat="43.73037" lon="6.97787">
        <ele>1022</ele>
        <time>2013-02-16T11:38:40Z</time>
      </trkpt>
      <trkpt lat="43.73038" lon="6.97795">
        <ele>1022</ele>
        <time>2013-02-16T11:38:45Z</time>
      </trkpt>
      <trkpt lat="43.73042" lon="6.97805">
        <ele>1022</ele>
        <time>2013-02-16T11:38:53Z</time>
      </trkpt>
      <trkpt lat="43.73043" lon="6.97806">
        <ele>1022</ele>
        <time>2013-02-16T11:38:57Z</time>
      </trkpt>
      <trkpt lat="43.73047" lon="6.97811">
        <ele>1022</ele>
        <time>2013-02-16T11:39:03Z</time>
      </trkpt>
      <trkpt lat="43.73051" lon="6.97816">
        <ele>1022</ele>
        <time>2013-02-16T11:39:10Z</time>
      </trkpt>
      <trkpt lat="43.73056" lon="6.97817">
        <ele>1023</ele>
        <time>2013-02-16T11:39:16Z</time>
      </trkpt>
      <trkpt lat="43.73058" lon="6.97821">
        <ele>1024</ele>
        <time>2013-02-16T11:39:21Z</time>
      </trkpt>
      <trkpt lat="43.7306" lon="6.97827">
        <ele>1024</ele>
        <time>2013-02-16T11:39:27Z</time>
      </trkpt>
      <trkpt lat="43.7306" lon="6.97832">
        <ele>1024</ele>
        <time>2013-02-16T11:39:34Z</time>
      </trkpt>
      <trkpt lat="43.73059" lon="6.97831">
        <ele>1024</ele>
        <time>2013-02-16T11:39:41Z</time>
      </trkpt>
      <trkpt lat="43.73059" lon="6.97832">
        <ele>1024</ele>
        <time>2013-02-16T11:39:46Z</time>
      </trkpt>
      <trkpt lat="43.7306" lon="6.97832">
        <ele>1024</ele>
        <time>2013-02-16T11:39:51Z</time>
      </trkpt>
      <trkpt lat="43.7306" lon="6.97832">
        <ele>1024</ele>
        <time>2013-02-16T11:39:59Z</time>
      </trkpt>
      <trkpt lat="43.7306" lon="6.97832">
        <ele>1024</ele>
        <time>2013-02-16T11:40:08Z</time>
      </trkpt>
      <trkpt lat="43.73062" lon="6.97833">
        <ele>1025</ele>
        <time>2013-02-16T11:40:26Z</time>
      </trkpt>
      <trkpt lat="43.73064" lon="6.97834">
        <ele>1020</ele>
        <time>2013-02-16T11:40:32Z</time>
      </trkpt>
      <trkpt lat="43.73065" lon="6.97837">
        <ele>1020</ele>
        <time>2013-02-16T11:40:38Z</time>
      </trkpt>
      <trkpt lat="43.73067" lon="6.97841">
        <ele>1021</ele>
        <time>2013-02-16T11:40:46Z</time>
      </trkpt>
      <trkpt lat="43.73069" lon="6.9785">
        <ele>1020</ele>
        <time>2013-02-16T11:40:54Z</time>
      </trkpt>
      <trkpt lat="43.73073" lon="6.97856">
        <ele>1019</ele>
        <time>2013-02-16T11:41:00Z</time>
      </trkpt>
      <trkpt lat="43.73074" lon="6.97857">
        <ele>1019</ele>
        <time>2013-02-16T11:41:01Z</time>
      </trkpt>
      <trkpt lat="43.73075" lon="6.97867">
        <ele>1017</ele>
        <time>2013-02-16T11:41:07Z</time>
      </trkpt>
      <trkpt lat="43.73079" lon="6.97875">
        <ele>1017</ele>
        <time>2013-02-16T11:41:14Z</time>
      </trkpt>
      <trkpt lat="43.73079" lon="6.97884">
        <ele>1017</ele>
        <time>2013-02-16T11:41:19Z</time>
      </trkpt>
      <trkpt lat="43.73079" lon="6.97901">
        <ele>1018</ele>
        <time>2013-02-16T11:41:29Z</time>
      </trkpt>
      <trkpt lat="43.73081" lon="6.97914">
        <ele>1022</ele>
        <time>2013-02-16T11:41:37Z</time>
      </trkpt>
      <trkpt lat="43.73081" lon="6.97918">
        <ele>1022</ele>
        <time>2013-02-16T11:41:40Z</time>
      </trkpt>
      <trkpt lat="43.7308" lon="6.97924">
        <ele>1019</ele>
        <time>2013-02-16T11:41:47Z</time>
      </trkpt>
      <trkpt lat="43.73078" lon="6.97931">
        <ele>1017</ele>
        <time>2013-02-16T11:41:53Z</time>
      </trkpt>
      <trkpt lat="43.73078" lon="6.97937">
        <ele>1015</ele>
        <time>2013-02-16T11:41:59Z</time>
      </trkpt>
      <trkpt lat="43.73078" lon="6.97941">
        <ele>1014</ele>
        <time>2013-02-16T11:42:04Z</time>
      </trkpt>
      <trkpt lat="43.73076" lon="6.97944">
        <ele>1014</ele>
        <time>2013-02-16T11:42:09Z</time>
      </trkpt>
      <trkpt lat="43.73076" lon="6.97951">
        <ele>1013</ele>
        <time>2013-02-16T11:42:16Z</time>
      </trkpt>
      <trkpt lat="43.73074" lon="6.97953">
        <ele>1013</ele>
        <time>2013-02-16T11:42:21Z</time>
      </trkpt>
      <trkpt lat="43.73071" lon="6.97958">
        <ele>1013</ele>
        <time>2013-02-16T11:42:26Z</time>
      </trkpt>
      <trkpt lat="43.73068" lon="6.97959">
        <ele>1012</ele>
        <time>2013-02-16T11:42:31Z</time>
      </trkpt>
      <trkpt lat="43.73065" lon="6.97966">
        <ele>1012</ele>
        <time>2013-02-16T11:42:37Z</time>
      </trkpt>
      <trkpt lat="43.73063" lon="6.97971">
        <ele>1012</ele>
        <time>2013-02-16T11:42:44Z</time>
      </trkpt>
      <trkpt lat="43.7306" lon="6.97973">
        <ele>1011</ele>
        <time>2013-02-16T11:42:49Z</time>
      </trkpt>
      <trkpt lat="43.73056" lon="6.97976">
        <ele>1011</ele>
        <time>2013-02-16T11:42:55Z</time>
      </trkpt>
      <trkpt lat="43.73054" lon="6.97987">
        <ele>1011</ele>
        <time>2013-02-16T11:43:04Z</time>
      </trkpt>
      <trkpt lat="43.73051" lon="6.97994">
        <ele>1011</ele>
        <time>2013-02-16T11:43:10Z</time>
      </trkpt>
      <trkpt lat="43.73046" lon="6.97996">
        <ele>1009</ele>
        <time>2013-02-16T11:43:16Z</time>
      </trkpt>
      <trkpt lat="43.73041" lon="6.97997">
        <ele>1008</ele>
        <time>2013-02-16T11:43:23Z</time>
      </trkpt>
      <trkpt lat="43.73036" lon="6.97998">
        <ele>1006</ele>
        <time>2013-02-16T11:43:29Z</time>
      </trkpt>
      <trkpt lat="43.73031" lon="6.97999">
        <ele>1005</ele>
        <time>2013-02-16T11:43:36Z</time>
      </trkpt>
      <trkpt lat="43.73027" lon="6.97999">
        <ele>1004</ele>
        <time>2013-02-16T11:43:41Z</time>
      </trkpt>
      <trkpt lat="43.73024" lon="6.98001">
        <ele>1004</ele>
        <time>2013-02-16T11:43:47Z</time>
      </trkpt>
      <trkpt lat="43.73019" lon="6.98">
        <ele>1002</ele>
        <time>2013-02-16T11:43:53Z</time>
      </trkpt>
      <trkpt lat="43.73016" lon="6.98002">
        <ele>1002</ele>
        <time>2013-02-16T11:43:58Z</time>
      </trkpt>
      <trkpt lat="43.73015" lon="6.98004">
        <ele>1001</ele>
        <time>2013-02-16T11:44:04Z</time>
      </trkpt>
      <trkpt lat="43.73014" lon="6.98004">
        <ele>1001</ele>
        <time>2013-02-16T11:44:08Z</time>
      </trkpt>
      <trkpt lat="43.73013" lon="6.98005">
        <ele>1000</ele>
        <time>2013-02-16T11:44:20Z</time>
      </trkpt>
      <trkpt lat="43.73012" lon="6.98007">
        <ele>1001</ele>
        <time>2013-02-16T11:44:43Z</time>
      </trkpt>
      <trkpt lat="43.73013" lon="6.98006">
        <ele>1001</ele>
        <time>2013-02-16T11:44:50Z</time>
      </trkpt>
      <trkpt lat="43.73014" lon="6.98005">
        <ele>1001</ele>
        <time>2013-02-16T11:45:21Z</time>
      </trkpt>
      <trkpt lat="43.73013" lon="6.98005">
        <ele>1000</ele>
        <time>2013-02-16T11:45:45Z</time>
      </trkpt>
      <trkpt lat="43.7301" lon="6.98003">
        <ele>999</ele>
        <time>2013-02-16T11:47:06Z</time>
      </trkpt>
      <trkpt lat="43.73013" lon="6.98002">
        <ele>1000</ele>
        <time>2013-02-16T12:02:38Z</time>
      </trkpt>
      <trkpt lat="43.73015" lon="6.98002">
        <ele>1001</ele>
        <time>2013-02-16T12:03:05Z</time>
      </trkpt>
      <trkpt lat="43.73018" lon="6.98001">
        <ele>1002</ele>
        <time>2013-02-16T12:07:34Z</time>
      </trkpt>
      <trkpt lat="43.73016" lon="6.98002">
        <ele>1001</ele>
        <time>2013-02-16T12:08:24Z</time>
      </trkpt>
      <trkpt lat="43.73016" lon="6.98002">
        <ele>1001</ele>
        <time>2013-02-16T12:08:30Z</time>
      </trkpt>
      <trkpt lat="43.73014" lon="6.98003">
        <ele>1001</ele>
        <time>2013-02-16T12:08:35Z</time>
      </trkpt>
      <trkpt lat="43.73014" lon="6.98003">
        <ele>1001</ele>
        <time>2013-02-16T12:08:45Z</time>
      </trkpt>
      <trkpt lat="43.73015" lon="6.98004">
        <ele>1001</ele>
        <time>2013-02-16T12:08:57Z</time>
      </trkpt>
      <trkpt lat="43.73015" lon="6.98004">
        <ele>1001</ele>
        <time>2013-02-16T12:09:03Z</time>
      </trkpt>
      <trkpt lat="43.73015" lon="6.98004">
        <ele>1001</ele>
        <time>2013-02-16T12:09:09Z</time>
      </trkpt>
      <trkpt lat="43.73013" lon="6.98006">
        <ele>1001</ele>
        <time>2013-02-16T12:09:21Z</time>
      </trkpt>
      <trkpt lat="43.73012" lon="6.98005">
        <ele>1000</ele>
        <time>2013-02-16T12:09:29Z</time>
      </trkpt>
      <trkpt lat="43.73013" lon="6.98005">
        <ele>1001</ele>
        <time>2013-02-16T12:09:42Z</time>
      </trkpt>
      <trkpt lat="43.73014" lon="6.98004">
        <ele>1001</ele>
        <time>2013-02-16T12:09:51Z</time>
      </trkpt>
      <trkpt lat="43.73014" lon="6.98005">
        <ele>1001</ele>
        <time>2013-02-16T12:09:57Z</time>
      </trkpt>
      <trkpt lat="43.73014" lon="6.98009">
        <ele>1002</ele>
        <time>2013-02-16T12:10:03Z</time>
      </trkpt>
      <trkpt lat="43.73015" lon="6.98012">
        <ele>1002</ele>
        <time>2013-02-16T12:10:09Z</time>
      </trkpt>
      <trkpt lat="43.73017" lon="6.98014">
        <ele>1003</ele>
        <time>2013-02-16T12:10:14Z</time>
      </trkpt>
      <trkpt lat="43.73018" lon="6.98018">
        <ele>1004</ele>
        <time>2013-02-16T12:10:20Z</time>
      </trkpt>
      <trkpt lat="43.7302" lon="6.98022">
        <ele>1005</ele>
        <time>2013-02-16T12:10:26Z</time>
      </trkpt>
      <trkpt lat="43.73023" lon="6.98024">
        <ele>1006</ele>
        <time>2013-02-16T12:10:32Z</time>
      </trkpt>
      <trkpt lat="43.73024" lon="6.98026">
        <ele>1006</ele>
        <time>2013-02-16T12:10:38Z</time>
      </trkpt>
      <trkpt lat="43.73025" lon="6.98027">
        <ele>1007</ele>
        <time>2013-02-16T12:10:43Z</time>
      </trkpt>
      <trkpt lat="43.73028" lon="6.9803">
        <ele>1007</ele>
        <time>2013-02-16T12:10:48Z</time>
      </trkpt>
      <trkpt lat="43.73029" lon="6.98034">
        <ele>1008</ele>
        <time>2013-02-16T12:10:54Z</time>
      </trkpt>
      <trkpt lat="43.73026" lon="6.98039">
        <ele>1007</ele>
        <time>2013-02-16T12:11:00Z</time>
      </trkpt>
      <trkpt lat="43.73027" lon="6.98046">
        <ele>1008</ele>
        <time>2013-02-16T12:11:06Z</time>
      </trkpt>
      <trkpt lat="43.73024" lon="6.98052">
        <ele>1007</ele>
        <time>2013-02-16T12:11:13Z</time>
      </trkpt>
      <trkpt lat="43.73022" lon="6.98057">
        <ele>1007</ele>
        <time>2013-02-16T12:11:20Z</time>
      </trkpt>
      <trkpt lat="43.7302" lon="6.98059">
        <ele>1006</ele>
        <time>2013-02-16T12:11:26Z</time>
      </trkpt>
      <trkpt lat="43.73019" lon="6.98065">
        <ele>1006</ele>
        <time>2013-02-16T12:11:33Z</time>
      </trkpt>
      <trkpt lat="43.73017" lon="6.98071">
        <ele>1005</ele>
        <time>2013-02-16T12:11:39Z</time>
      </trkpt>
      <trkpt lat="43.73016" lon="6.98077">
        <ele>1004</ele>
        <time>2013-02-16T12:11:44Z</time>
      </trkpt>
      <trkpt lat="43.73016" lon="6.98086">
        <ele>1002</ele>
        <time>2013-02-16T12:11:51Z</time>
      </trkpt>
      <trkpt lat="43.7302" lon="6.98091">
        <ele>1003</ele>
        <time>2013-02-16T12:11:56Z</time>
      </trkpt>
      <trkpt lat="43.73021" lon="6.98099">
        <ele>1004</ele>
        <time>2013-02-16T12:12:02Z</time>
      </trkpt>
      <trkpt lat="43.73019" lon="6.98109">
        <ele>1004</ele>
        <time>2013-02-16T12:12:09Z</time>
      </trkpt>
      <trkpt lat="43.73018" lon="6.98122">
        <ele>1003</ele>
        <time>2013-02-16T12:12:18Z</time>
      </trkpt>
      <trkpt lat="43.73016" lon="6.9813">
        <ele>1003</ele>
        <time>2013-02-16T12:12:25Z</time>
      </trkpt>
      <trkpt lat="43.7301" lon="6.98138">
        <ele>1001</ele>
        <time>2013-02-16T12:12:33Z</time>
      </trkpt>
      <trkpt lat="43.73009" lon="6.98143">
        <ele>1000</ele>
        <time>2013-02-16T12:12:39Z</time>
      </trkpt>
      <trkpt lat="43.73009" lon="6.98143">
        <ele>1000</ele>
        <time>2013-02-16T12:12:47Z</time>
      </trkpt>
      <trkpt lat="43.73012" lon="6.98144">
        <ele>1000</ele>
        <time>2013-02-16T12:12:52Z</time>
      </trkpt>
      <trkpt lat="43.73015" lon="6.98144">
        <ele>1001</ele>
        <time>2013-02-16T12:12:58Z</time>
      </trkpt>
      <trkpt lat="43.73016" lon="6.98145">
        <ele>1001</ele>
        <time>2013-02-16T12:13:09Z</time>
      </trkpt>
      <trkpt lat="43.73017" lon="6.98145">
        <ele>1001</ele>
        <time>2013-02-16T12:13:18Z</time>
      </trkpt>
      <trkpt lat="43.73016" lon="6.98148">
        <ele>1000</ele>
        <time>2013-02-16T12:13:23Z</time>
      </trkpt>
      <trkpt lat="43.73018" lon="6.98152">
        <ele>1000</ele>
        <time>2013-02-16T12:13:29Z</time>
      </trkpt>
      <trkpt lat="43.73019" lon="6.98158">
        <ele>1000</ele>
        <time>2013-02-16T12:13:36Z</time>
      </trkpt>
      <trkpt lat="43.73019" lon="6.98159">
        <ele>1000</ele>
        <time>2013-02-16T12:13:45Z</time>
      </trkpt>
      <trkpt lat="43.73022" lon="6.9816">
        <ele>1000</ele>
        <time>2013-02-16T12:13:50Z</time>
      </trkpt>
      <trkpt lat="43.73025" lon="6.98162">
        <ele>1001</ele>
        <time>2013-02-16T12:13:55Z</time>
      </trkpt>
      <trkpt lat="43.73025" lon="6.98168">
        <ele>996</ele>
        <time>2013-02-16T12:14:02Z</time>
      </trkpt>
      <trkpt lat="43.73023" lon="6.98174">
        <ele>995</ele>
        <time>2013-02-16T12:14:09Z</time>
      </trkpt>
      <trkpt lat="43.73022" lon="6.9818">
        <ele>995</ele>
        <time>2013-02-16T12:14:15Z</time>
      </trkpt>
      <trkpt lat="43.73024" lon="6.98187">
        <ele>995</ele>
        <time>2013-02-16T12:14:22Z</time>
      </trkpt>
      <trkpt lat="43.73025" lon="6.98195">
        <ele>995</ele>
        <time>2013-02-16T12:14:29Z</time>
      </trkpt>
      <trkpt lat="43.73026" lon="6.982">
        <ele>995</ele>
        <time>2013-02-16T12:14:35Z</time>
      </trkpt>
      <trkpt lat="43.7303" lon="6.98206">
        <ele>995</ele>
        <time>2013-02-16T12:14:41Z</time>
      </trkpt>
      <trkpt lat="43.73029" lon="6.98214">
        <ele>995</ele>
        <time>2013-02-16T12:14:47Z</time>
      </trkpt>
      <trkpt lat="43.73027" lon="6.98224">
        <ele>993</ele>
        <time>2013-02-16T12:14:55Z</time>
      </trkpt>
      <trkpt lat="43.73026" lon="6.98237">
        <ele>991</ele>
        <time>2013-02-16T12:15:03Z</time>
      </trkpt>
      <trkpt lat="43.73026" lon="6.9824">
        <ele>991</ele>
        <time>2013-02-16T12:15:05Z</time>
      </trkpt>
      <trkpt lat="43.73032" lon="6.98249">
        <ele>992</ele>
        <time>2013-02-16T12:15:12Z</time>
      </trkpt>
      <trkpt lat="43.73034" lon="6.98255">
        <ele>989</ele>
        <time>2013-02-16T12:15:16Z</time>
      </trkpt>
      <trkpt lat="43.73041" lon="6.98268">
        <ele>991</ele>
        <time>2013-02-16T12:15:26Z</time>
      </trkpt>
      <trkpt lat="43.73042" lon="6.98279">
        <ele>992</ele>
        <time>2013-02-16T12:15:34Z</time>
      </trkpt>
      <trkpt lat="43.73042" lon="6.98286">
        <ele>991</ele>
        <time>2013-02-16T12:15:40Z</time>
      </trkpt>
      <trkpt lat="43.73041" lon="6.98288">
        <ele>991</ele>
        <time>2013-02-16T12:15:41Z</time>
      </trkpt>
      <trkpt lat="43.73041" lon="6.98293">
        <ele>991</ele>
        <time>2013-02-16T12:15:44Z</time>
      </trkpt>
      <trkpt lat="43.73044" lon="6.983">
        <ele>992</ele>
        <time>2013-02-16T12:15:53Z</time>
      </trkpt>
      <trkpt lat="43.73046" lon="6.98304">
        <ele>992</ele>
        <time>2013-02-16T12:15:59Z</time>
      </trkpt>
      <trkpt lat="43.7305" lon="6.98306">
        <ele>993</ele>
        <time>2013-02-16T12:16:05Z</time>
      </trkpt>
      <trkpt lat="43.73054" lon="6.98309">
        <ele>994</ele>
        <time>2013-02-16T12:16:11Z</time>
      </trkpt>
      <trkpt lat="43.73059" lon="6.98314">
        <ele>995</ele>
        <time>2013-02-16T12:16:19Z</time>
      </trkpt>
      <trkpt lat="43.73062" lon="6.98322">
        <ele>996</ele>
        <time>2013-02-16T12:16:27Z</time>
      </trkpt>
      <trkpt lat="43.73065" lon="6.98332">
        <ele>997</ele>
        <time>2013-02-16T12:16:35Z</time>
      </trkpt>
      <trkpt lat="43.7307" lon="6.98336">
        <ele>995</ele>
        <time>2013-02-16T12:16:41Z</time>
      </trkpt>
      <trkpt lat="43.73074" lon="6.98339">
        <ele>996</ele>
        <time>2013-02-16T12:16:46Z</time>
      </trkpt>
      <trkpt lat="43.73078" lon="6.98341">
        <ele>997</ele>
        <time>2013-02-16T12:16:51Z</time>
      </trkpt>
      <trkpt lat="43.73083" lon="6.98343">
        <ele>997</ele>
        <time>2013-02-16T12:16:58Z</time>
      </trkpt>
      <trkpt lat="43.73087" lon="6.98345">
        <ele>1002</ele>
        <time>2013-02-16T12:17:04Z</time>
      </trkpt>
      <trkpt lat="43.73089" lon="6.98349">
        <ele>1002</ele>
        <time>2013-02-16T12:17:10Z</time>
      </trkpt>
      <trkpt lat="43.73092" lon="6.98352">
        <ele>1001</ele>
        <time>2013-02-16T12:17:16Z</time>
      </trkpt>
      <trkpt lat="43.73093" lon="6.98353">
        <ele>1001</ele>
        <time>2013-02-16T12:17:21Z</time>
      </trkpt>
      <trkpt lat="43.73097" lon="6.98353">
        <ele>1001</ele>
        <time>2013-02-16T12:17:27Z</time>
      </trkpt>
      <trkpt lat="43.73103" lon="6.98352">
        <ele>1001</ele>
        <time>2013-02-16T12:17:34Z</time>
      </trkpt>
      <trkpt lat="43.73109" lon="6.98352">
        <ele>1000</ele>
        <time>2013-02-16T12:17:41Z</time>
      </trkpt>
      <trkpt lat="43.73116" lon="6.98353">
        <ele>1000</ele>
        <time>2013-02-16T12:17:48Z</time>
      </trkpt>
      <trkpt lat="43.73121" lon="6.98351">
        <ele>999</ele>
        <time>2013-02-16T12:17:55Z</time>
      </trkpt>
      <trkpt lat="43.73122" lon="6.9835">
        <ele>999</ele>
        <time>2013-02-16T12:18:02Z</time>
      </trkpt>
      <trkpt lat="43.73127" lon="6.98349">
        <ele>999</ele>
        <time>2013-02-16T12:18:09Z</time>
      </trkpt>
      <trkpt lat="43.73128" lon="6.98348">
        <ele>999</ele>
        <time>2013-02-16T12:18:16Z</time>
      </trkpt>
      <trkpt lat="43.73132" lon="6.98349">
        <ele>999</ele>
        <time>2013-02-16T12:18:21Z</time>
      </trkpt>
      <trkpt lat="43.73137" lon="6.98352">
        <ele>999</ele>
        <time>2013-02-16T12:18:27Z</time>
      </trkpt>
      <trkpt lat="43.73144" lon="6.98355">
        <ele>998</ele>
        <time>2013-02-16T12:18:34Z</time>
      </trkpt>
      <trkpt lat="43.73151" lon="6.98358">
        <ele>998</ele>
        <time>2013-02-16T12:18:42Z</time>
      </trkpt>
      <trkpt lat="43.73153" lon="6.98365">
        <ele>998</ele>
        <time>2013-02-16T12:18:49Z</time>
      </trkpt>
      <trkpt lat="43.73156" lon="6.98372">
        <ele>998</ele>
        <time>2013-02-16T12:18:55Z</time>
      </trkpt>
      <trkpt lat="43.7316" lon="6.98376">
        <ele>997</ele>
        <time>2013-02-16T12:19:01Z</time>
      </trkpt>
      <trkpt lat="43.73165" lon="6.98378">
        <ele>997</ele>
        <time>2013-02-16T12:19:07Z</time>
      </trkpt>
      <trkpt lat="43.73167" lon="6.98382">
        <ele>994</ele>
        <time>2013-02-16T12:19:13Z</time>
      </trkpt>
      <trkpt lat="43.73166" lon="6.98388">
        <ele>997</ele>
        <time>2013-02-16T12:19:19Z</time>
      </trkpt>
      <trkpt lat="43.73167" lon="6.98397">
        <ele>993</ele>
        <time>2013-02-16T12:19:26Z</time>
      </trkpt>
      <trkpt lat="43.73167" lon="6.98398">
        <ele>993</ele>
        <time>2013-02-16T12:19:32Z</time>
      </trkpt>
      <trkpt lat="43.73168" lon="6.98404">
        <ele>993</ele>
        <time>2013-02-16T12:19:38Z</time>
      </trkpt>
      <trkpt lat="43.73168" lon="6.98412">
        <ele>993</ele>
        <time>2013-02-16T12:19:44Z</time>
      </trkpt>
      <trkpt lat="43.73168" lon="6.98417">
        <ele>993</ele>
        <time>2013-02-16T12:19:48Z</time>
      </trkpt>
      <trkpt lat="43.73171" lon="6.98426">
        <ele>992</ele>
        <time>2013-02-16T12:19:55Z</time>
      </trkpt>
      <trkpt lat="43.73172" lon="6.98431">
        <ele>992</ele>
        <time>2013-02-16T12:20:00Z</time>
      </trkpt>
      <trkpt lat="43.73175" lon="6.98435">
        <ele>992</ele>
        <time>2013-02-16T12:20:05Z</time>
      </trkpt>
      <trkpt lat="43.73176" lon="6.9844">
        <ele>992</ele>
        <time>2013-02-16T12:20:11Z</time>
      </trkpt>
      <trkpt lat="43.7318" lon="6.98446">
        <ele>992</ele>
        <time>2013-02-16T12:20:18Z</time>
      </trkpt>
      <trkpt lat="43.73182" lon="6.98451">
        <ele>991</ele>
        <time>2013-02-16T12:20:24Z</time>
      </trkpt>
      <trkpt lat="43.73187" lon="6.98455">
        <ele>991</ele>
        <time>2013-02-16T12:20:30Z</time>
      </trkpt>
      <trkpt lat="43.73192" lon="6.98458">
        <ele>991</ele>
        <time>2013-02-16T12:20:36Z</time>
      </trkpt>
      <trkpt lat="43.73196" lon="6.98466">
        <ele>991</ele>
        <time>2013-02-16T12:20:42Z</time>
      </trkpt>
      <trkpt lat="43.73199" lon="6.98473">
        <ele>991</ele>
        <time>2013-02-16T12:20:49Z</time>
      </trkpt>
      <trkpt lat="43.73199" lon="6.98481">
        <ele>991</ele>
        <time>2013-02-16T12:20:56Z</time>
      </trkpt>
      <trkpt lat="43.73201" lon="6.98497">
        <ele>991</ele>
        <time>2013-02-16T12:21:06Z</time>
      </trkpt>
      <trkpt lat="43.73205" lon="6.98507">
        <ele>985</ele>
        <time>2013-02-16T12:21:13Z</time>
      </trkpt>
      <trkpt lat="43.73208" lon="6.98513">
        <ele>984</ele>
        <time>2013-02-16T12:21:18Z</time>
      </trkpt>
      <trkpt lat="43.7321" lon="6.98519">
        <ele>984</ele>
        <time>2013-02-16T12:21:22Z</time>
      </trkpt>
      <trkpt lat="43.73214" lon="6.98527">
        <ele>983</ele>
        <time>2013-02-16T12:21:30Z</time>
      </trkpt>
      <trkpt lat="43.73219" lon="6.98537">
        <ele>983</ele>
        <time>2013-02-16T12:21:38Z</time>
      </trkpt>
      <trkpt lat="43.73221" lon="6.98545">
        <ele>982</ele>
        <time>2013-02-16T12:21:44Z</time>
      </trkpt>
      <trkpt lat="43.73221" lon="6.98554">
        <ele>981</ele>
        <time>2013-02-16T12:21:52Z</time>
      </trkpt>
      <trkpt lat="43.73223" lon="6.98562">
        <ele>981</ele>
        <time>2013-02-16T12:22:00Z</time>
      </trkpt>
      <trkpt lat="43.73223" lon="6.98562">
        <ele>981</ele>
        <time>2013-02-16T12:22:08Z</time>
      </trkpt>
      <trkpt lat="43.73225" lon="6.98563">
        <ele>981</ele>
        <time>2013-02-16T12:22:22Z</time>
      </trkpt>
      <trkpt lat="43.73225" lon="6.98564">
        <ele>981</ele>
        <time>2013-02-16T12:22:30Z</time>
      </trkpt>
      <trkpt lat="43.73223" lon="6.98566">
        <ele>981</ele>
        <time>2013-02-16T12:22:47Z</time>
      </trkpt>
      <trkpt lat="43.73226" lon="6.98567">
        <ele>981</ele>
        <time>2013-02-16T12:22:52Z</time>
      </trkpt>
      <trkpt lat="43.73229" lon="6.98572">
        <ele>982</ele>
        <time>2013-02-16T12:22:57Z</time>
      </trkpt>
      <trkpt lat="43.73231" lon="6.98575">
        <ele>982</ele>
        <time>2013-02-16T12:23:01Z</time>
      </trkpt>
      <trkpt lat="43.73235" lon="6.9858">
        <ele>983</ele>
        <time>2013-02-16T12:23:06Z</time>
      </trkpt>
      <trkpt lat="43.73242" lon="6.98589">
        <ele>971</ele>
        <time>2013-02-16T12:23:14Z</time>
      </trkpt>
      <trkpt lat="43.73247" lon="6.98595">
        <ele>968</ele>
        <time>2013-02-16T12:23:20Z</time>
      </trkpt>
      <trkpt lat="43.7325" lon="6.98595">
        <ele>969</ele>
        <time>2013-02-16T12:23:23Z</time>
      </trkpt>
      <trkpt lat="43.73253" lon="6.98598">
        <ele>979</ele>
        <time>2013-02-16T12:23:27Z</time>
      </trkpt>
      <trkpt lat="43.73257" lon="6.98606">
        <ele>976</ele>
        <time>2013-02-16T12:23:35Z</time>
      </trkpt>
      <trkpt lat="43.73263" lon="6.98609">
        <ele>975</ele>
        <time>2013-02-16T12:23:41Z</time>
      </trkpt>
      <trkpt lat="43.73268" lon="6.98612">
        <ele>974</ele>
        <time>2013-02-16T12:23:47Z</time>
      </trkpt>
      <trkpt lat="43.73275" lon="6.98617">
        <ele>973</ele>
        <time>2013-02-16T12:23:55Z</time>
      </trkpt>
      <trkpt lat="43.73283" lon="6.98622">
        <ele>972</ele>
        <time>2013-02-16T12:24:03Z</time>
      </trkpt>
      <trkpt lat="43.73288" lon="6.98627">
        <ele>972</ele>
        <time>2013-02-16T12:24:10Z</time>
      </trkpt>
      <trkpt lat="43.73293" lon="6.98633">
        <ele>971</ele>
        <time>2013-02-16T12:24:18Z</time>
      </trkpt>
      <trkpt lat="43.73297" lon="6.98638">
        <ele>971</ele>
        <time>2013-02-16T12:24:25Z</time>
      </trkpt>
      <trkpt lat="43.73297" lon="6.98638">
        <ele>971</ele>
        <time>2013-02-16T12:24:30Z</time>
      </trkpt>
      <trkpt lat="43.73302" lon="6.9864">
        <ele>972</ele>
        <time>2013-02-16T12:24:36Z</time>
      </trkpt>
      <trkpt lat="43.73306" lon="6.98646">
        <ele>972</ele>
        <time>2013-02-16T12:24:43Z</time>
      </trkpt>
      <trkpt lat="43.73313" lon="6.98653">
        <ele>973</ele>
        <time>2013-02-16T12:24:51Z</time>
      </trkpt>
      <trkpt lat="43.73317" lon="6.98656">
        <ele>973</ele>
        <time>2013-02-16T12:24:55Z</time>
      </trkpt>
      <trkpt lat="43.73322" lon="6.98658">
        <ele>974</ele>
        <time>2013-02-16T12:25:01Z</time>
      </trkpt>
      <trkpt lat="43.7333" lon="6.9866">
        <ele>975</ele>
        <time>2013-02-16T12:25:09Z</time>
      </trkpt>
      <trkpt lat="43.73337" lon="6.9866">
        <ele>978</ele>
        <time>2013-02-16T12:25:16Z</time>
      </trkpt>
      <trkpt lat="43.73344" lon="6.9866">
        <ele>979</ele>
        <time>2013-02-16T12:25:22Z</time>
      </trkpt>
      <trkpt lat="43.73348" lon="6.98661">
        <ele>979</ele>
        <time>2013-02-16T12:25:26Z</time>
      </trkpt>
      <trkpt lat="43.7336" lon="6.98662">
        <ele>980</ele>
        <time>2013-02-16T12:25:37Z</time>
      </trkpt>
      <trkpt lat="43.73369" lon="6.98662">
        <ele>981</ele>
        <time>2013-02-16T12:25:45Z</time>
      </trkpt>
      <trkpt lat="43.73374" lon="6.98662">
        <ele>981</ele>
        <time>2013-02-16T12:25:50Z</time>
      </trkpt>
      <trkpt lat="43.73379" lon="6.98662">
        <ele>981</ele>
        <time>2013-02-16T12:25:55Z</time>
      </trkpt>
      <trkpt lat="43.73389" lon="6.98667">
        <ele>969</ele>
        <time>2013-02-16T12:26:03Z</time>
      </trkpt>
      <trkpt lat="43.73397" lon="6.9867">
        <ele>971</ele>
        <time>2013-02-16T12:26:10Z</time>
      </trkpt>
      <trkpt lat="43.73406" lon="6.98675">
        <ele>974</ele>
        <time>2013-02-16T12:26:18Z</time>
      </trkpt>
      <trkpt lat="43.73414" lon="6.98679">
        <ele>974</ele>
        <time>2013-02-16T12:26:25Z</time>
      </trkpt>
      <trkpt lat="43.73423" lon="6.9868">
        <ele>980</ele>
        <time>2013-02-16T12:26:34Z</time>
      </trkpt>
      <trkpt lat="43.73432" lon="6.98681">
        <ele>980</ele>
        <time>2013-02-16T12:26:43Z</time>
      </trkpt>
      <trkpt lat="43.73439" lon="6.98683">
        <ele>980</ele>
        <time>2013-02-16T12:26:51Z</time>
      </trkpt>
      <trkpt lat="43.73441" lon="6.98684">
        <ele>980</ele>
        <time>2013-02-16T12:26:57Z</time>
      </trkpt>
      <trkpt lat="43.7344" lon="6.98684">
        <ele>980</ele>
        <time>2013-02-16T12:27:02Z</time>
      </trkpt>
      <trkpt lat="43.73441" lon="6.98685">
        <ele>980</ele>
        <time>2013-02-16T12:27:15Z</time>
      </trkpt>
      <trkpt lat="43.73442" lon="6.98685">
        <ele>980</ele>
        <time>2013-02-16T12:27:51Z</time>
      </trkpt>
      <trkpt lat="43.73443" lon="6.98686">
        <ele>980</ele>
        <time>2013-02-16T12:27:56Z</time>
      </trkpt>
      <trkpt lat="43.73444" lon="6.98687">
        <ele>980</ele>
        <time>2013-02-16T12:28:01Z</time>
      </trkpt>
      <trkpt lat="43.73445" lon="6.98688">
        <ele>980</ele>
        <time>2013-02-16T12:28:18Z</time>
      </trkpt>
      <trkpt lat="43.73447" lon="6.98686">
        <ele>980</ele>
        <time>2013-02-16T12:28:28Z</time>
      </trkpt>
      <trkpt lat="43.73451" lon="6.98686">
        <ele>980</ele>
        <time>2013-02-16T12:28:33Z</time>
      </trkpt>
      <trkpt lat="43.73458" lon="6.98687">
        <ele>980</ele>
        <time>2013-02-16T12:28:40Z</time>
      </trkpt>
      <trkpt lat="43.73463" lon="6.9869">
        <ele>980</ele>
        <time>2013-02-16T12:28:46Z</time>
      </trkpt>
      <trkpt lat="43.73469" lon="6.98694">
        <ele>981</ele>
        <time>2013-02-16T12:28:53Z</time>
      </trkpt>
      <trkpt lat="43.73477" lon="6.98697">
        <ele>981</ele>
        <time>2013-02-16T12:29:01Z</time>
      </trkpt>
      <trkpt lat="43.73484" lon="6.98702">
        <ele>981</ele>
        <time>2013-02-16T12:29:09Z</time>
      </trkpt>
      <trkpt lat="43.73491" lon="6.98708">
        <ele>981</ele>
        <time>2013-02-16T12:29:16Z</time>
      </trkpt>
      <trkpt lat="43.73492" lon="6.9871">
        <ele>981</ele>
        <time>2013-02-16T12:29:18Z</time>
      </trkpt>
      <trkpt lat="43.73502" lon="6.98715">
        <ele>986</ele>
        <time>2013-02-16T12:29:28Z</time>
      </trkpt>
      <trkpt lat="43.73504" lon="6.98717">
        <ele>986</ele>
        <time>2013-02-16T12:29:30Z</time>
      </trkpt>
      <trkpt lat="43.73509" lon="6.98717">
        <ele>986</ele>
        <time>2013-02-16T12:29:35Z</time>
      </trkpt>
      <trkpt lat="43.73518" lon="6.98721">
        <ele>986</ele>
        <time>2013-02-16T12:29:44Z</time>
      </trkpt>
      <trkpt lat="43.73526" lon="6.98724">
        <ele>987</ele>
        <time>2013-02-16T12:29:52Z</time>
      </trkpt>
      <trkpt lat="43.73535" lon="6.98727">
        <ele>987</ele>
        <time>2013-02-16T12:30:01Z</time>
      </trkpt>
      <trkpt lat="43.73536" lon="6.98727">
        <ele>987</ele>
        <time>2013-02-16T12:30:02Z</time>
      </trkpt>
      <trkpt lat="43.73541" lon="6.9872">
        <ele>987</ele>
        <time>2013-02-16T12:30:09Z</time>
      </trkpt>
      <trkpt lat="43.73547" lon="6.98716">
        <ele>987</ele>
        <time>2013-02-16T12:30:16Z</time>
      </trkpt>
      <trkpt lat="43.73553" lon="6.98714">
        <ele>988</ele>
        <time>2013-02-16T12:30:21Z</time>
      </trkpt>
      <trkpt lat="43.73555" lon="6.98713">
        <ele>988</ele>
        <time>2013-02-16T12:30:23Z</time>
      </trkpt>
      <trkpt lat="43.73559" lon="6.9871">
        <ele>988</ele>
        <time>2013-02-16T12:30:27Z</time>
      </trkpt>
      <trkpt lat="43.73562" lon="6.98707">
        <ele>988</ele>
        <time>2013-02-16T12:30:31Z</time>
      </trkpt>
      <trkpt lat="43.73567" lon="6.98702">
        <ele>988</ele>
        <time>2013-02-16T12:30:37Z</time>
      </trkpt>
      <trkpt lat="43.73573" lon="6.98696">
        <ele>988</ele>
        <time>2013-02-16T12:30:44Z</time>
      </trkpt>
      <trkpt lat="43.73578" lon="6.98691">
        <ele>988</ele>
        <time>2013-02-16T12:30:51Z</time>
      </trkpt>
      <trkpt lat="43.73579" lon="6.98692">
        <ele>988</ele>
        <time>2013-02-16T12:30:56Z</time>
      </trkpt>
      <trkpt lat="43.73581" lon="6.9869">
        <ele>988</ele>
        <time>2013-02-16T12:31:03Z</time>
      </trkpt>
      <trkpt lat="43.73584" lon="6.98684">
        <ele>993</ele>
        <time>2013-02-16T12:31:10Z</time>
      </trkpt>
      <trkpt lat="43.73583" lon="6.98678">
        <ele>988</ele>
        <time>2013-02-16T12:31:16Z</time>
      </trkpt>
      <trkpt lat="43.73589" lon="6.98673">
        <ele>991</ele>
        <time>2013-02-16T12:31:22Z</time>
      </trkpt>
      <trkpt lat="43.73598" lon="6.98664">
        <ele>991</ele>
        <time>2013-02-16T12:31:31Z</time>
      </trkpt>
      <trkpt lat="43.73602" lon="6.98658">
        <ele>992</ele>
        <time>2013-02-16T12:31:39Z</time>
      </trkpt>
      <trkpt lat="43.73604" lon="6.98655">
        <ele>992</ele>
        <time>2013-02-16T12:31:45Z</time>
      </trkpt>
      <trkpt lat="43.73607" lon="6.98655">
        <ele>992</ele>
        <time>2013-02-16T12:31:51Z</time>
      </trkpt>
      <trkpt lat="43.73614" lon="6.98654">
        <ele>993</ele>
        <time>2013-02-16T12:31:58Z</time>
      </trkpt>
      <trkpt lat="43.73616" lon="6.98651">
        <ele>993</ele>
        <time>2013-02-16T12:32:02Z</time>
      </trkpt>
      <trkpt lat="43.73619" lon="6.98645">
        <ele>993</ele>
        <time>2013-02-16T12:32:07Z</time>
      </trkpt>
      <trkpt lat="43.73623" lon="6.98637">
        <ele>993</ele>
        <time>2013-02-16T12:32:13Z</time>
      </trkpt>
      <trkpt lat="43.73624" lon="6.98637">
        <ele>993</ele>
        <time>2013-02-16T12:32:14Z</time>
      </trkpt>
      <trkpt lat="43.73627" lon="6.98635">
        <ele>993</ele>
        <time>2013-02-16T12:32:16Z</time>
      </trkpt>
      <trkpt lat="43.73629" lon="6.98632">
        <ele>993</ele>
        <time>2013-02-16T12:32:19Z</time>
      </trkpt>
      <trkpt lat="43.73633" lon="6.9863">
        <ele>993</ele>
        <time>2013-02-16T12:32:25Z</time>
      </trkpt>
      <trkpt lat="43.7364" lon="6.98631">
        <ele>994</ele>
        <time>2013-02-16T12:32:33Z</time>
      </trkpt>
      <trkpt lat="43.73645" lon="6.98625">
        <ele>994</ele>
        <time>2013-02-16T12:32:39Z</time>
      </trkpt>
      <trkpt lat="43.73647" lon="6.98619">
        <ele>994</ele>
        <time>2013-02-16T12:32:46Z</time>
      </trkpt>
      <trkpt lat="43.73649" lon="6.98614">
        <ele>994</ele>
        <time>2013-02-16T12:32:53Z</time>
      </trkpt>
      <trkpt lat="43.73654" lon="6.98603">
        <ele>993</ele>
        <time>2013-02-16T12:33:03Z</time>
      </trkpt>
      <trkpt lat="43.73659" lon="6.98596">
        <ele>993</ele>
        <time>2013-02-16T12:33:10Z</time>
      </trkpt>
      <trkpt lat="43.73662" lon="6.9859">
        <ele>993</ele>
        <time>2013-02-16T12:33:16Z</time>
      </trkpt>
      <trkpt lat="43.73668" lon="6.98581">
        <ele>994</ele>
        <time>2013-02-16T12:33:24Z</time>
      </trkpt>
      <trkpt lat="43.73673" lon="6.98569">
        <ele>996</ele>
        <time>2013-02-16T12:33:32Z</time>
      </trkpt>
      <trkpt lat="43.73674" lon="6.98562">
        <ele>997</ele>
        <time>2013-02-16T12:33:36Z</time>
      </trkpt>
      <trkpt lat="43.73675" lon="6.98553">
        <ele>998</ele>
        <time>2013-02-16T12:33:45Z</time>
      </trkpt>
      <trkpt lat="43.73676" lon="6.98546">
        <ele>998</ele>
        <time>2013-02-16T12:33:51Z</time>
      </trkpt>
      <trkpt lat="43.73678" lon="6.9854">
        <ele>998</ele>
        <time>2013-02-16T12:33:57Z</time>
      </trkpt>
      <trkpt lat="43.7368" lon="6.98532">
        <ele>997</ele>
        <time>2013-02-16T12:34:03Z</time>
      </trkpt>
      <trkpt lat="43.73681" lon="6.98525">
        <ele>997</ele>
        <time>2013-02-16T12:34:09Z</time>
      </trkpt>
      <trkpt lat="43.73684" lon="6.98512">
        <ele>996</ele>
        <time>2013-02-16T12:34:17Z</time>
      </trkpt>
      <trkpt lat="43.73684" lon="6.9851">
        <ele>996</ele>
        <time>2013-02-16T12:34:18Z</time>
      </trkpt>
      <trkpt lat="43.73682" lon="6.98497">
        <ele>993</ele>
        <time>2013-02-16T12:34:26Z</time>
      </trkpt>
      <trkpt lat="43.7368" lon="6.98487">
        <ele>993</ele>
        <time>2013-02-16T12:34:33Z</time>
      </trkpt>
      <trkpt lat="43.7368" lon="6.98484">
        <ele>993</ele>
        <time>2013-02-16T12:34:35Z</time>
      </trkpt>
      <trkpt lat="43.73683" lon="6.98478">
        <ele>994</ele>
        <time>2013-02-16T12:34:40Z</time>
      </trkpt>
      <trkpt lat="43.73683" lon="6.98472">
        <ele>994</ele>
        <time>2013-02-16T12:34:46Z</time>
      </trkpt>
      <trkpt lat="43.73684" lon="6.98467">
        <ele>994</ele>
        <time>2013-02-16T12:34:52Z</time>
      </trkpt>
      <trkpt lat="43.73686" lon="6.98461">
        <ele>994</ele>
        <time>2013-02-16T12:34:59Z</time>
      </trkpt>
      <trkpt lat="43.73688" lon="6.98452">
        <ele>994</ele>
        <time>2013-02-16T12:35:06Z</time>
      </trkpt>
      <trkpt lat="43.73689" lon="6.98447">
        <ele>994</ele>
        <time>2013-02-16T12:35:10Z</time>
      </trkpt>
      <trkpt lat="43.73691" lon="6.98443">
        <ele>994</ele>
        <time>2013-02-16T12:35:13Z</time>
      </trkpt>
      <trkpt lat="43.73693" lon="6.98436">
        <ele>994</ele>
        <time>2013-02-16T12:35:21Z</time>
      </trkpt>
      <trkpt lat="43.73697" lon="6.98429">
        <ele>994</ele>
        <time>2013-02-16T12:35:27Z</time>
      </trkpt>
      <trkpt lat="43.73699" lon="6.98427">
        <ele>994</ele>
        <time>2013-02-16T12:35:29Z</time>
      </trkpt>
      <trkpt lat="43.73704" lon="6.98419">
        <ele>995</ele>
        <time>2013-02-16T12:35:36Z</time>
      </trkpt>
      <trkpt lat="43.73707" lon="6.98413">
        <ele>993</ele>
        <time>2013-02-16T12:35:42Z</time>
      </trkpt>
      <trkpt lat="43.73711" lon="6.98405">
        <ele>993</ele>
        <time>2013-02-16T12:35:49Z</time>
      </trkpt>
      <trkpt lat="43.73713" lon="6.98403">
        <ele>993</ele>
        <time>2013-02-16T12:35:51Z</time>
      </trkpt>
      <trkpt lat="43.73718" lon="6.98397">
        <ele>993</ele>
        <time>2013-02-16T12:35:58Z</time>
      </trkpt>
      <trkpt lat="43.73719" lon="6.98396">
        <ele>993</ele>
        <time>2013-02-16T12:35:59Z</time>
      </trkpt>
      <trkpt lat="43.73727" lon="6.98385">
        <ele>994</ele>
        <time>2013-02-16T12:36:09Z</time>
      </trkpt>
      <trkpt lat="43.73728" lon="6.98381">
        <ele>993</ele>
        <time>2013-02-16T12:36:12Z</time>
      </trkpt>
      <trkpt lat="43.73729" lon="6.98371">
        <ele>993</ele>
        <time>2013-02-16T12:36:18Z</time>
      </trkpt>
      <trkpt lat="43.7373" lon="6.98367">
        <ele>993</ele>
        <time>2013-02-16T12:36:20Z</time>
      </trkpt>
      <trkpt lat="43.7373" lon="6.98365">
        <ele>993</ele>
        <time>2013-02-16T12:36:22Z</time>
      </trkpt>
      <trkpt lat="43.73734" lon="6.98355">
        <ele>994</ele>
        <time>2013-02-16T12:36:29Z</time>
      </trkpt>
      <trkpt lat="43.73736" lon="6.98351">
        <ele>994</ele>
        <time>2013-02-16T12:36:33Z</time>
      </trkpt>
      <trkpt lat="43.73737" lon="6.98343">
        <ele>994</ele>
        <time>2013-02-16T12:36:40Z</time>
      </trkpt>
      <trkpt lat="43.73741" lon="6.98333">
        <ele>994</ele>
        <time>2013-02-16T12:36:48Z</time>
      </trkpt>
      <trkpt lat="43.73742" lon="6.98326">
        <ele>993</ele>
        <time>2013-02-16T12:36:55Z</time>
      </trkpt>
      <trkpt lat="43.73746" lon="6.98319">
        <ele>993</ele>
        <time>2013-02-16T12:37:02Z</time>
      </trkpt>
      <trkpt lat="43.73749" lon="6.98311">
        <ele>993</ele>
        <time>2013-02-16T12:37:09Z</time>
      </trkpt>
      <trkpt lat="43.73752" lon="6.98298">
        <ele>999</ele>
        <time>2013-02-16T12:37:17Z</time>
      </trkpt>
      <trkpt lat="43.73752" lon="6.98297">
        <ele>999</ele>
        <time>2013-02-16T12:37:18Z</time>
      </trkpt>
      <trkpt lat="43.73756" lon="6.98288">
        <ele>999</ele>
        <time>2013-02-16T12:37:25Z</time>
      </trkpt>
      <trkpt lat="43.73764" lon="6.98284">
        <ele>999</ele>
        <time>2013-02-16T12:37:48Z</time>
      </trkpt>
      <trkpt lat="43.73766" lon="6.9828">
        <ele>999</ele>
        <time>2013-02-16T12:38:10Z</time>
      </trkpt>
      <trkpt lat="43.73765" lon="6.98279">
        <ele>999</ele>
        <time>2013-02-16T12:38:19Z</time>
      </trkpt>
      <trkpt lat="43.73766" lon="6.9828">
        <ele>999</ele>
        <time>2013-02-16T12:38:28Z</time>
      </trkpt>
      <trkpt lat="43.73766" lon="6.9828">
        <ele>999</ele>
        <time>2013-02-16T12:38:36Z</time>
      </trkpt>
      <trkpt lat="43.73765" lon="6.9828">
        <ele>999</ele>
        <time>2013-02-16T12:38:45Z</time>
      </trkpt>
      <trkpt lat="43.73762" lon="6.98276">
        <ele>998</ele>
        <time>2013-02-16T12:38:54Z</time>
      </trkpt>
      <trkpt lat="43.73763" lon="6.98269">
        <ele>998</ele>
        <time>2013-02-16T12:39:00Z</time>
      </trkpt>
      <trkpt lat="43.73764" lon="6.9826">
        <ele>997</ele>
        <time>2013-02-16T12:39:09Z</time>
      </trkpt>
      <trkpt lat="43.73767" lon="6.98251">
        <ele>997</ele>
        <time>2013-02-16T12:39:15Z</time>
      </trkpt>
      <trkpt lat="43.7377" lon="6.98238">
        <ele>995</ele>
        <time>2013-02-16T12:39:25Z</time>
      </trkpt>
      <trkpt lat="43.73773" lon="6.98233">
        <ele>996</ele>
        <time>2013-02-16T12:39:31Z</time>
      </trkpt>
      <trkpt lat="43.73774" lon="6.98225">
        <ele>996</ele>
        <time>2013-02-16T12:39:37Z</time>
      </trkpt>
      <trkpt lat="43.73774" lon="6.98213">
        <ele>995</ele>
        <time>2013-02-16T12:39:44Z</time>
      </trkpt>
      <trkpt lat="43.73774" lon="6.9821">
        <ele>995</ele>
        <time>2013-02-16T12:39:51Z</time>
      </trkpt>
      <trkpt lat="43.73773" lon="6.98205">
        <ele>995</ele>
        <time>2013-02-16T12:40:03Z</time>
      </trkpt>
      <trkpt lat="43.73774" lon="6.98194">
        <ele>994</ele>
        <time>2013-02-16T12:40:10Z</time>
      </trkpt>
      <trkpt lat="43.73776" lon="6.98188">
        <ele>994</ele>
        <time>2013-02-16T12:40:14Z</time>
      </trkpt>
      <trkpt lat="43.73777" lon="6.98181">
        <ele>994</ele>
        <time>2013-02-16T12:40:20Z</time>
      </trkpt>
      <trkpt lat="43.7378" lon="6.98173">
        <ele>994</ele>
        <time>2013-02-16T12:40:26Z</time>
      </trkpt>
      <trkpt lat="43.73783" lon="6.9817">
        <ele>994</ele>
        <time>2013-02-16T12:40:35Z</time>
      </trkpt>
      <trkpt lat="43.73785" lon="6.98166">
        <ele>992</ele>
        <time>2013-02-16T12:40:40Z</time>
      </trkpt>
      <trkpt lat="43.73789" lon="6.98158">
        <ele>992</ele>
        <time>2013-02-16T12:40:47Z</time>
      </trkpt>
      <trkpt lat="43.73791" lon="6.98156">
        <ele>992</ele>
        <time>2013-02-16T12:40:55Z</time>
      </trkpt>
      <trkpt lat="43.73792" lon="6.98154">
        <ele>992</ele>
        <time>2013-02-16T12:40:56Z</time>
      </trkpt>
      <trkpt lat="43.73796" lon="6.98145">
        <ele>992</ele>
        <time>2013-02-16T12:41:03Z</time>
      </trkpt>
      <trkpt lat="43.73796" lon="6.98135">
        <ele>992</ele>
        <time>2013-02-16T12:41:10Z</time>
      </trkpt>
      <trkpt lat="43.73797" lon="6.98134">
        <ele>992</ele>
        <time>2013-02-16T12:41:11Z</time>
      </trkpt>
      <trkpt lat="43.73804" lon="6.98126">
        <ele>992</ele>
        <time>2013-02-16T12:41:19Z</time>
      </trkpt>
      <trkpt lat="43.73805" lon="6.98126">
        <ele>992</ele>
        <time>2013-02-16T12:41:20Z</time>
      </trkpt>
      <trkpt lat="43.73814" lon="6.98121">
        <ele>993</ele>
        <time>2013-02-16T12:41:28Z</time>
      </trkpt>
      <trkpt lat="43.73817" lon="6.98117">
        <ele>993</ele>
        <time>2013-02-16T12:41:33Z</time>
      </trkpt>
      <trkpt lat="43.73824" lon="6.98111">
        <ele>993</ele>
        <time>2013-02-16T12:41:41Z</time>
      </trkpt>
      <trkpt lat="43.73828" lon="6.98108">
        <ele>993</ele>
        <time>2013-02-16T12:41:47Z</time>
      </trkpt>
      <trkpt lat="43.73831" lon="6.98103">
        <ele>993</ele>
        <time>2013-02-16T12:41:53Z</time>
      </trkpt>
      <trkpt lat="43.73833" lon="6.98097">
        <ele>993</ele>
        <time>2013-02-16T12:42:02Z</time>
      </trkpt>
      <trkpt lat="43.73838" lon="6.98096">
        <ele>997</ele>
        <time>2013-02-16T12:42:09Z</time>
      </trkpt>
      <trkpt lat="43.7384" lon="6.98094">
        <ele>997</ele>
        <time>2013-02-16T12:42:14Z</time>
      </trkpt>
      <trkpt lat="43.73842" lon="6.98093">
        <ele>997</ele>
        <time>2013-02-16T12:42:20Z</time>
      </trkpt>
      <trkpt lat="43.73845" lon="6.9809">
        <ele>997</ele>
        <time>2013-02-16T12:42:26Z</time>
      </trkpt>
      <trkpt lat="43.73845" lon="6.98084">
        <ele>997</ele>
        <time>2013-02-16T12:42:33Z</time>
      </trkpt>
      <trkpt lat="43.73844" lon="6.98079">
        <ele>997</ele>
        <time>2013-02-16T12:42:39Z</time>
      </trkpt>
      <trkpt lat="43.7384" lon="6.98071">
        <ele>998</ele>
        <time>2013-02-16T12:42:46Z</time>
      </trkpt>
      <trkpt lat="43.7384" lon="6.98067">
        <ele>998</ele>
        <time>2013-02-16T12:42:48Z</time>
      </trkpt>
      <trkpt lat="43.73837" lon="6.98059">
        <ele>999</ele>
        <time>2013-02-16T12:42:55Z</time>
      </trkpt>
      <trkpt lat="43.73833" lon="6.9805">
        <ele>993</ele>
        <time>2013-02-16T12:43:04Z</time>
      </trkpt>
      <trkpt lat="43.73829" lon="6.98042">
        <ele>993</ele>
        <time>2013-02-16T12:43:12Z</time>
      </trkpt>
      <trkpt lat="43.73831" lon="6.9804">
        <ele>993</ele>
        <time>2013-02-16T12:43:19Z</time>
      </trkpt>
      <trkpt lat="43.73833" lon="6.98037">
        <ele>994</ele>
        <time>2013-02-16T12:43:26Z</time>
      </trkpt>
      <trkpt lat="43.73835" lon="6.98033">
        <ele>1000</ele>
        <time>2013-02-16T12:43:32Z</time>
      </trkpt>
      <trkpt lat="43.73837" lon="6.98031">
        <ele>1000</ele>
        <time>2013-02-16T12:43:38Z</time>
      </trkpt>
      <trkpt lat="43.73838" lon="6.98027">
        <ele>1000</ele>
        <time>2013-02-16T12:43:46Z</time>
      </trkpt>
      <trkpt lat="43.7384" lon="6.98023">
        <ele>1000</ele>
        <time>2013-02-16T12:43:52Z</time>
      </trkpt>
      <trkpt lat="43.73843" lon="6.98022">
        <ele>1000</ele>
        <time>2013-02-16T12:43:58Z</time>
      </trkpt>
      <trkpt lat="43.73844" lon="6.98018">
        <ele>1000</ele>
        <time>2013-02-16T12:44:04Z</time>
      </trkpt>
      <trkpt lat="43.73846" lon="6.98008">
        <ele>1000</ele>
        <time>2013-02-16T12:44:12Z</time>
      </trkpt>
      <trkpt lat="43.73845" lon="6.98003">
        <ele>1000</ele>
        <time>2013-02-16T12:44:16Z</time>
      </trkpt>
      <trkpt lat="43.73844" lon="6.97993">
        <ele>1002</ele>
        <time>2013-02-16T12:44:24Z</time>
      </trkpt>
      <trkpt lat="43.73844" lon="6.97987">
        <ele>1003</ele>
        <time>2013-02-16T12:44:29Z</time>
      </trkpt>
      <trkpt lat="43.73845" lon="6.9798">
        <ele>1004</ele>
        <time>2013-02-16T12:44:36Z</time>
      </trkpt>
      <trkpt lat="43.73848" lon="6.97976">
        <ele>1005</ele>
        <time>2013-02-16T12:44:43Z</time>
      </trkpt>
      <trkpt lat="43.73851" lon="6.97972">
        <ele>1005</ele>
        <time>2013-02-16T12:44:49Z</time>
      </trkpt>
      <trkpt lat="43.73851" lon="6.97969">
        <ele>1005</ele>
        <time>2013-02-16T12:44:53Z</time>
      </trkpt>
      <trkpt lat="43.73852" lon="6.97958">
        <ele>1006</ele>
        <time>2013-02-16T12:45:01Z</time>
      </trkpt>
      <trkpt lat="43.73849" lon="6.97949">
        <ele>1006</ele>
        <time>2013-02-16T12:45:10Z</time>
      </trkpt>
      <trkpt lat="43.73848" lon="6.97943">
        <ele>1006</ele>
        <time>2013-02-16T12:45:16Z</time>
      </trkpt>
      <trkpt lat="43.73849" lon="6.97937">
        <ele>1006</ele>
        <time>2013-02-16T12:45:22Z</time>
      </trkpt>
      <trkpt lat="43.7385" lon="6.97932">
        <ele>1006</ele>
        <time>2013-02-16T12:45:28Z</time>
      </trkpt>
      <trkpt lat="43.7385" lon="6.97929">
        <ele>1006</ele>
        <time>2013-02-16T12:45:30Z</time>
      </trkpt>
      <trkpt lat="43.73852" lon="6.97921">
        <ele>1006</ele>
        <time>2013-02-16T12:45:37Z</time>
      </trkpt>
      <trkpt lat="43.73854" lon="6.97913">
        <ele>1009</ele>
        <time>2013-02-16T12:45:43Z</time>
      </trkpt>
      <trkpt lat="43.73856" lon="6.97908">
        <ele>1009</ele>
        <time>2013-02-16T12:45:48Z</time>
      </trkpt>
      <trkpt lat="43.73859" lon="6.97901">
        <ele>1010</ele>
        <time>2013-02-16T12:45:56Z</time>
      </trkpt>
      <trkpt lat="43.73863" lon="6.97897">
        <ele>1011</ele>
        <time>2013-02-16T12:46:02Z</time>
      </trkpt>
      <trkpt lat="43.73866" lon="6.97892">
        <ele>1011</ele>
        <time>2013-02-16T12:46:08Z</time>
      </trkpt>
      <trkpt lat="43.73868" lon="6.97884">
        <ele>1012</ele>
        <time>2013-02-16T12:46:14Z</time>
      </trkpt>
      <trkpt lat="43.73868" lon="6.97877">
        <ele>1012</ele>
        <time>2013-02-16T12:46:18Z</time>
      </trkpt>
      <trkpt lat="43.7387" lon="6.97871">
        <ele>1012</ele>
        <time>2013-02-16T12:46:22Z</time>
      </trkpt>
      <trkpt lat="43.7387" lon="6.97867">
        <ele>1012</ele>
        <time>2013-02-16T12:46:25Z</time>
      </trkpt>
      <trkpt lat="43.73869" lon="6.97861">
        <ele>1012</ele>
        <time>2013-02-16T12:46:32Z</time>
      </trkpt>
      <trkpt lat="43.73869" lon="6.97856">
        <ele>1012</ele>
        <time>2013-02-16T12:46:40Z</time>
      </trkpt>
      <trkpt lat="43.7387" lon="6.97851">
        <ele>1012</ele>
        <time>2013-02-16T12:46:47Z</time>
      </trkpt>
      <trkpt lat="43.73871" lon="6.97846">
        <ele>1012</ele>
        <time>2013-02-16T12:46:54Z</time>
      </trkpt>
      <trkpt lat="43.73872" lon="6.97841">
        <ele>1012</ele>
        <time>2013-02-16T12:47:01Z</time>
      </trkpt>
      <trkpt lat="43.73874" lon="6.97838">
        <ele>1013</ele>
        <time>2013-02-16T12:47:06Z</time>
      </trkpt>
      <trkpt lat="43.73875" lon="6.97834">
        <ele>1013</ele>
        <time>2013-02-16T12:47:13Z</time>
      </trkpt>
      <trkpt lat="43.73874" lon="6.97827">
        <ele>1016</ele>
        <time>2013-02-16T12:47:20Z</time>
      </trkpt>
      <trkpt lat="43.73876" lon="6.97823">
        <ele>1016</ele>
        <time>2013-02-16T12:47:26Z</time>
      </trkpt>
      <trkpt lat="43.73879" lon="6.9782">
        <ele>1017</ele>
        <time>2013-02-16T12:47:33Z</time>
      </trkpt>
      <trkpt lat="43.73879" lon="6.97813">
        <ele>1017</ele>
        <time>2013-02-16T12:47:40Z</time>
      </trkpt>
      <trkpt lat="43.7388" lon="6.97809">
        <ele>1017</ele>
        <time>2013-02-16T12:47:45Z</time>
      </trkpt>
      <trkpt lat="43.73881" lon="6.97804">
        <ele>1017</ele>
        <time>2013-02-16T12:47:50Z</time>
      </trkpt>
      <trkpt lat="43.73882" lon="6.978">
        <ele>1017</ele>
        <time>2013-02-16T12:47:57Z</time>
      </trkpt>
      <trkpt lat="43.73885" lon="6.97791">
        <ele>1018</ele>
        <time>2013-02-16T12:48:05Z</time>
      </trkpt>
      <trkpt lat="43.73887" lon="6.97782">
        <ele>1019</ele>
        <time>2013-02-16T12:48:12Z</time>
      </trkpt>
      <trkpt lat="43.73889" lon="6.97775">
        <ele>1019</ele>
        <time>2013-02-16T12:48:18Z</time>
      </trkpt>
      <trkpt lat="43.73892" lon="6.9777">
        <ele>1020</ele>
        <time>2013-02-16T12:48:25Z</time>
      </trkpt>
      <trkpt lat="43.73891" lon="6.97767">
        <ele>1020</ele>
        <time>2013-02-16T12:48:31Z</time>
      </trkpt>
      <trkpt lat="43.73892" lon="6.97763">
        <ele>1020</ele>
        <time>2013-02-16T12:48:38Z</time>
      </trkpt>
      <trkpt lat="43.73894" lon="6.97761">
        <ele>1021</ele>
        <time>2013-02-16T12:48:43Z</time>
      </trkpt>
      <trkpt lat="43.73895" lon="6.97759">
        <ele>1021</ele>
        <time>2013-02-16T12:48:49Z</time>
      </trkpt>
      <trkpt lat="43.73898" lon="6.97755">
        <ele>1021</ele>
        <time>2013-02-16T12:48:56Z</time>
      </trkpt>
      <trkpt lat="43.73897" lon="6.97748">
        <ele>1025</ele>
        <time>2013-02-16T12:49:03Z</time>
      </trkpt>
      <trkpt lat="43.73901" lon="6.97744">
        <ele>1025</ele>
        <time>2013-02-16T12:49:09Z</time>
      </trkpt>
      <trkpt lat="43.73901" lon="6.97739">
        <ele>1025</ele>
        <time>2013-02-16T12:49:16Z</time>
      </trkpt>
      <trkpt lat="43.73902" lon="6.97737">
        <ele>1025</ele>
        <time>2013-02-16T12:49:22Z</time>
      </trkpt>
      <trkpt lat="43.73902" lon="6.97733">
        <ele>1025</ele>
        <time>2013-02-16T12:49:27Z</time>
      </trkpt>
      <trkpt lat="43.73902" lon="6.97728">
        <ele>1025</ele>
        <time>2013-02-16T12:49:33Z</time>
      </trkpt>
      <trkpt lat="43.73901" lon="6.97724">
        <ele>1025</ele>
        <time>2013-02-16T12:49:38Z</time>
      </trkpt>
      <trkpt lat="43.73901" lon="6.97718">
        <ele>1026</ele>
        <time>2013-02-16T12:49:48Z</time>
      </trkpt>
      <trkpt lat="43.739" lon="6.97712">
        <ele>1026</ele>
        <time>2013-02-16T12:49:55Z</time>
      </trkpt>
      <trkpt lat="43.73899" lon="6.97708">
        <ele>1026</ele>
        <time>2013-02-16T12:50:01Z</time>
      </trkpt>
      <trkpt lat="43.73897" lon="6.97702">
        <ele>1026</ele>
        <time>2013-02-16T12:50:08Z</time>
      </trkpt>
      <trkpt lat="43.73897" lon="6.97695">
        <ele>1027</ele>
        <time>2013-02-16T12:50:15Z</time>
      </trkpt>
      <trkpt lat="43.73899" lon="6.97689">
        <ele>1027</ele>
        <time>2013-02-16T12:50:21Z</time>
      </trkpt>
      <trkpt lat="43.73902" lon="6.97686">
        <ele>1028</ele>
        <time>2013-02-16T12:50:26Z</time>
      </trkpt>
      <trkpt lat="43.73906" lon="6.97683">
        <ele>1029</ele>
        <time>2013-02-16T12:50:34Z</time>
      </trkpt>
      <trkpt lat="43.73908" lon="6.97681">
        <ele>1029</ele>
        <time>2013-02-16T12:50:38Z</time>
      </trkpt>
      <trkpt lat="43.73939" lon="6.97552">
        <ele>1045</ele>
      </trkpt>
      <trkpt lat="43.73964" lon="6.97462">
        <ele>1050</ele>
      </trkpt>
      <trkpt lat="43.73973" lon="6.9744">
        <ele>1052</ele>
      </trkpt>
      <trkpt lat="43.74016" lon="6.97586">
        <ele>1061</ele>
      </trkpt>
      <trkpt lat="43.74069" lon="6.97651">
        <ele>1065</ele>
      </trkpt>
      <trkpt lat="43.74094" lon="6.97689">
        <ele>1070</ele>
      </trkpt>
      <trkpt lat="43.74128" lon="6.97582">
        <ele>1082</ele>
      </trkpt>
      <trkpt lat="43.74134" lon="6.97531">
        <ele>1083</ele>
      </trkpt>
      <trkpt lat="43.74171" lon="6.97445">
        <ele>1093</ele>
      </trkpt>
      <trkpt lat="43.74212" lon="6.97342">
        <ele>1099</ele>
      </trkpt>
      <trkpt lat="43.74236" lon="6.97277">
        <ele>1099</ele>
      </trkpt>
      <trkpt lat="43.74271" lon="6.97269">
        <ele>1103</ele>
      </trkpt>
      <trkpt lat="43.74305" lon="6.97059">
        <ele>1139</ele>
      </trkpt>
      <trkpt lat="43.74302" lon="6.97016">
        <ele>1144</ele>
      </trkpt>
      <trkpt lat="43.74302" lon="6.96934">
        <ele>1161</ele>
      </trkpt>
      <trkpt lat="43.74295" lon="6.96848">
        <ele>1175</ele>
      </trkpt>
      <trkpt lat="43.74314" lon="6.9681">
        <ele>1183</ele>
      </trkpt>
      <trkpt lat="43.74329" lon="6.96599">
        <ele>1200</ele>
      </trkpt>
      <trkpt lat="43.74382" lon="6.96432">
        <ele>1212</ele>
      </trkpt>
      <trkpt lat="43.74478" lon="6.96258">
        <ele>1216</ele>
      </trkpt>
      <trkpt lat="43.74416" lon="6.96198">
        <ele>1207</ele>
      </trkpt>
      <trkpt lat="43.74466" lon="6.9588">
        <ele>1226</ele>
      </trkpt>
      <trkpt lat="43.74525" lon="6.95833">
        <ele>1236</ele>
      </trkpt>
      <trkpt lat="43.74584" lon="6.95825">
        <ele>1250</ele>
      </trkpt>
      <trkpt lat="43.74537" lon="6.95649">
        <ele>1205</ele>
      </trkpt>
      <trkpt lat="43.74485" lon="6.9552">
        <ele>1166</ele>
      </trkpt>
      <trkpt lat="43.74444" lon="6.95387">
        <ele>1139</ele>
      </trkpt>
      <trkpt lat="43.74422" lon="6.95333">
        <ele>1132</ele>
      </trkpt>
      <trkpt lat="43.7441" lon="6.95299">
        <ele>1129</ele>
      </trkpt>
      <trkpt lat="43.74398" lon="6.95106">
        <ele>1121</ele>
      </trkpt>
      <trkpt lat="43.74364" lon="6.94981">
        <ele>1118</ele>
      </trkpt>
      <trkpt lat="43.74277" lon="6.94896">
        <ele>1118</ele>
      </trkpt>
      <trkpt lat="43.74236" lon="6.94707">
        <ele>1120</ele>
      </trkpt>
      <trkpt lat="43.74209" lon="6.9463">
        <ele>1119</ele>
      </trkpt>
      <trkpt lat="43.74221" lon="6.94582">
        <ele>1118</ele>
      </trkpt>
    </trkseg>
  </trk>
</gpx>